Flight Track Log - Related Links

Times and Time Zones

All times are in EDT time to prevent confusion due to time zone crossing. See the DAL268 flight status page for this flight to view local times or setup timezone preferences in your user account.

Time Position Orientation Groundspeed Altitude Reporting Facility
EDT Latitude Longitude Course Direction KTS MPH feet Rate Location/Type
Thu 12:09:06 AM 40.6360 -73.7850 264° West  Level FlightAware ADS-B
Thu 12:16:00 AM 40.5833 -73.3224 90° East  Level FlightAware Approximate
Thu 12:16:08 AM 40.6370 -73.7850 90° East  Level FlightAware ADS-B
Thu 12:18:00 AM 40.5956 -73.4322 108° East  Level FlightAware Approximate
Thu 12:19:00 AM 40.5731 -73.2462 123° Southeast  Level FlightAware Approximate
Thu 12:20:00 AM 40.5507 -73.0574 97° East  Level FlightAware Approximate
Thu 12:27:05 AM 40.6330 -73.7860 303° West 86 99  Level FlightAware ADS-B
Thu 12:27:26 AM 40.6390 -73.7990 301° West 145 167 140 Level FlightAware ADS-B
Thu 12:27:48 AM 40.6480 -73.8190 301° West 181 208 100 833 Climbing FlightAware ADS-B
Thu 12:28:02 AM 40.6530 -73.8330 295° West 179 206 500 1,500 Climbing FlightAware ADS-B
Thu 12:28:12 AM 40.6530 -73.8430 270° West 185 213 700 1,000 Climbing FlightAware ADS-B
Thu 12:28:20 AM 40.6500 -73.8520 246° West 197 227 800 1,125 Climbing FlightAware ADS-B
Thu 12:28:28 AM 40.6450 -73.8600 231° Southwest 205 236 1,000 1,714 Climbing FlightAware ADS-B
Thu 12:28:48 AM 40.6310 -73.8750 219° Southwest 205 236 1,600 1,737 Climbing FlightAware ADS-B
Thu 12:29:06 AM 40.6160 -73.8880 213° Southwest 212 244 2,100 1,756 Climbing FlightAware ADS-B
Thu 12:29:29 AM 40.5960 -73.9000 204° Southwest 217 250 2,800 2,000 Climbing FlightAware ADS-B
Thu 12:29:33 AM 40.5910 -73.9000 180° South 219 252 3,000 1,500 Climbing FlightAware ADS-B
Thu 12:29:57 AM 40.5680 -73.8890 160° South 234 269 3,500 1,600 Climbing FlightAware ADS-B
Thu 12:30:18 AM 40.5490 -73.8710 144° Southeast 236 272 4,200 1,636 Climbing FlightAware ADS-B
Thu 12:30:30 AM 40.5417 -73.8565 124° Southeast 244 281 4,400 1,125 Climbing FlightAware ADS-B
Thu 12:30:34 AM 40.5398 -73.8510 114° Southeast 248 285 4,500 1,200 Climbing FlightAware ADS-B
Thu 12:30:40 AM 40.5378 -73.8422 107° East 252 290 4,600 500 Climbing FlightAware ADS-B
Thu 12:30:46 AM 40.5369 -73.8334 98° East 258 297 4,600 500 Level FlightAware ADS-B
Thu 12:30:52 AM 40.5372 -73.8228 88° East 262 302 4,700 800 Climbing FlightAware ADS-B
Thu 12:31:01 AM 40.5391 -73.8083 80° East 269 310 4,800 1,440 Climbing FlightAware ADS-B
Thu 12:31:17 AM 40.5439 -73.7822 76° East 280 322 5,300 1,935 Climbing FlightAware ADS-B
Thu 12:31:32 AM 40.5473 -73.7565 80° East 285 328 5,800 2,400 Climbing FlightAware ADS-B
Thu 12:31:47 AM 40.5492 -73.7307 84° East 291 335 6,500 2,516 Climbing FlightAware ADS-B
Thu 12:32:03 AM 40.5495 -73.7023 89° East 300 345 7,100 2,129 Climbing FlightAware ADS-B
Thu 12:32:18 AM 40.5491 -73.6745 91° East 308 354 7,600 1,935 Climbing FlightAware ADS-B
Thu 12:32:34 AM 40.5490 -73.6447 90° East 315 362 8,100 2,129 Climbing FlightAware ADS-B
Thu 12:32:49 AM 40.5497 -73.6154 88° East 321 369 8,700 2,323 Climbing FlightAware ADS-B
Thu 12:33:05 AM 40.5516 -73.5823 86° East 328 377 9,300 2,364 Climbing FlightAware ADS-B
Thu 12:33:22 AM 40.5537 -73.5498 85° East 333 383 10,000 2,043 Climbing FlightAware ADS-B
Thu 12:33:52 AM 40.5553 -73.4875 88° East 349 402 10,900 1,525 Climbing FlightAware ADS-B
Thu 12:34:21 AM 40.5562 -73.4234 89° East 377 434 11,500 1,224 Climbing FlightAware ADS-B
Thu 12:34:41 AM 40.5574 -73.3764 88° East 395 455 11,900 1,294 Climbing FlightAware ADS-B
Thu 12:35:12 AM 40.5611 -73.2993 86° East 418 481 12,600 1,770 Climbing FlightAware ADS-B
Thu 12:35:42 AM 40.5638 -73.2217 87° East 429 494 13,700 2,066 Climbing FlightAware ADS-B
Thu 12:36:13 AM 40.5643 -73.1405 90° East 442 509 14,700 2,164 Climbing FlightAware ADS-B
Thu 12:36:43 AM 40.5659 -73.0584 89° East 447 514 15,900 2,151 Climbing FlightAware ADS-B
Thu 12:37:06 AM 40.5724 -72.9949 82° East 455 524 16,600 2,073 Climbing FlightAware ADS-B
Thu 12:37:38 AM 40.5924 -72.9099 73° East 460 529 17,800 2,095 Climbing FlightAware ADS-B
Thu 12:38:09 AM 40.6146 -72.8285 70° East 465 535 18,800 1,948 Climbing FlightAware ADS-B
Thu 12:38:55 AM 40.6470 -72.7050 71° East 471 542 20,300 1,735 Climbing FlightAware ADS-B
Thu 12:39:32 AM 40.6730 -72.6070 71° East 480 552 21,200 1,548 Climbing FlightAware ADS-B
Thu 12:39:57 AM 40.6928 -72.5345 70° East 466 536 21,900 1,629 Climbing FlightAware ADS-B
Thu 12:40:42 AM 40.7260 -72.4080 71° East 494 568 23,100 1,412 Climbing FlightAware ADS-B
Thu 12:41:05 AM 40.7424 -72.3406 72° East 503 579 23,500 1,105 Climbing FlightAware ADS-B
Thu 12:41:58 AM 40.7800 -72.1840 72° East 520 598 24,500 1,099 Climbing FlightAware ADS-B
Thu 12:42:16 AM 40.7957 -72.1273 70° East 515 593 24,800 1,059 Climbing FlightAware ADS-B
Thu 12:42:49 AM 40.8216 -72.0270 71° East 528 608 25,400 938 Climbing FlightAware ADS-B
Thu 12:43:20 AM 40.8456 -71.9306 72° East 547 629 25,800 857 Climbing FlightAware ADS-B
Thu 12:43:52 AM 40.8700 -71.8310 72° East 554 638 26,300 1,029 Climbing FlightAware ADS-B
Thu 12:44:30 AM 40.9014 -71.7020 72° East 566 651 27,000 701 Climbing FlightAware ADS-B
Thu 12:45:09 AM 40.9300 -71.5910 71° East 567 652 27,200 160 Climbing FlightAware ADS-B
Thu 12:45:45 AM 40.9560 -71.4900 71° East 567 652 27,200  Level FlightAware ADS-B
Thu 12:46:21 AM 40.9820 -71.3900 71° East 567 652 27,200 1,500 Level FlightAware ADS-B
Thu 12:46:53 AM 41.0190 -71.2250 73° East 600 690 28,900 1,714 Climbing FlightAware ADS-B
Thu 12:47:38 AM 41.0570 -71.0650 72° East 610 702 29,400 975 Climbing FlightAware ADS-B
Thu 12:48:13 AM 41.0890 -70.9350 72° East 612 704 30,200 930 Climbing FlightAware ADS-B
Thu 12:48:49 AM 41.1170 -70.8200 72° East 608 700 30,500 1,200 Climbing FlightAware ADS-B
Thu 12:49:33 AM 41.1530 -70.6640 73° East 610 702 31,800 1,113 Climbing FlightAware ADS-B
Thu 12:50:26 AM 41.1950 -70.4860 73° East 610 702 32,300 337 Climbing FlightAware ADS-B
Thu 12:51:02 AM 41.2220 -70.3770 72° East 610 702 32,300  Level FlightAware ADS-B
Thu 12:51:38 AM 41.2480 -70.2680 72° East 610 702 32,300  Level FlightAware ADS-B
Thu 12:52:14 AM 41.2750 -70.1580 72° East 610 702 32,300  Level FlightAware ADS-B
Thu 12:52:50 AM 41.3020 -70.0490 72° East 610 702 32,300  Level FlightAware ADS-B
Thu 12:53:26 AM 41.3280 -69.9400 72° East 610 702 32,300 393 Level FlightAware ADS-B
Thu 12:53:57 AM 41.5190 -69.8180 26° Northeast 33,000 592 Climbing FlightAware ADS-B
Thu 12:54:02 AM 41.5250 -69.8070 54° Northeast 33,000  Level FlightAware ADS-B
Thu 12:54:37 AM 41.5860 -69.7110 50° Northeast 599 689 33,000  Level FlightAware ADS-B
Thu 12:55:23 AM 41.6610 -69.5930 50° Northeast 599 689 33,000  Level FlightAware ADS-B
Thu 12:55:59 AM 41.7150 -69.5060 50° Northeast 599 689 33,000  Level FlightAware ADS-B
Thu 12:56:39 AM 41.7940 -69.3790 50° Northeast 599 689 33,000  Level FlightAware ADS-B
Thu 12:57:16 AM 41.8730 -69.2500 51° Northeast 596 686 33,000  Level FlightAware ADS-B
Thu 12:58:08 AM 41.9650 -69.1000 50° Northeast 598 688 33,000  Level FlightAware ADS-B
Thu 12:58:43 AM 42.0280 -68.9960 51° Northeast 604 695 33,000  Level FlightAware ADS-B
Thu 12:59:23 AM 42.0980 -68.8810 51° Northeast 599 689 33,000  Level FlightAware ADS-B
Thu 12:59:55 AM 42.1520 -68.7930 50° Northeast 606 697 33,000  Level FlightAware ADS-B
Thu 01:00:29 AM 42.2130 -68.6910 51° Northeast 602 693 33,000  Level FlightAware ADS-B
Thu 01:01:04 AM 42.2770 -68.5850 51° Northeast 603 694 33,000  Level FlightAware ADS-B
Thu 01:01:34 AM 42.3220 -68.5100 51° Northeast 603 694 33,000  Level FlightAware ADS-B
Thu 01:02:13 AM 42.3800 -68.4120 51° Northeast 603 694 33,000  Level FlightAware ADS-B
Thu 01:02:49 AM 42.4340 -68.3230 51° Northeast 603 694 33,000  Level FlightAware ADS-B
Thu 01:03:24 AM 42.5230 -68.1720 51° Northeast 33,000  Level FlightAware ADS-B
Thu 01:09:08 AM 43.1230 -67.1390 51° Northeast 608 700 33,000  Level FlightAware ADS-B
Thu 01:09:43 AM 43.1790 -67.0390 52° Northeast 613 705 33,000  Level FlightAware ADS-B
Thu 01:10:23 AM 43.2450 -66.9220 52° Northeast 614 707 33,000  Level FlightAware ADS-B
Thu 01:10:59 AM 43.3090 -66.8070 53° Northeast 614 707 33,000  Level FlightAware ADS-B
Thu 01:11:34 AM 43.3610 -66.7160 52° Northeast 614 707 33,000  Level FlightAware ADS-B
Thu 01:12:09 AM 43.4360 -66.5780 53° Northeast 613 705 33,000  Level FlightAware ADS-B
Thu 01:12:44 AM 43.4880 -66.4830 53° Northeast 613 705 33,000  Level FlightAware ADS-B
Thu 01:13:23 AM 43.5660 -66.3440 52° Northeast 617 710 33,000  Level FlightAware ADS-B
Thu 01:13:54 AM 43.6200 -66.2470 52° Northeast 617 710 33,000  Level FlightAware ADS-B
Thu 01:14:28 AM 43.6810 -66.1370 52° Northeast 618 711 33,000  Level FlightAware ADS-B
Thu 01:15:04 AM 43.7420 -66.0260 53° Northeast 620 713 33,000  Level FlightAware ADS-B
Thu 01:15:38 AM 43.8020 -65.9150 53° Northeast 621 715 33,000  Level FlightAware ADS-B
Thu 01:16:14 AM 43.8640 -65.8010 53° Northeast 621 715 33,000  Level FlightAware ADS-B
Thu 01:16:49 AM 43.9250 -65.6880 53° Northeast 623 717 33,000  Level FlightAware ADS-B
Thu 01:17:25 AM 43.9870 -65.5730 53° Northeast 625 719 33,000  Level FlightAware ADS-B
Thu 01:17:59 AM 44.0480 -65.4600 53° Northeast 626 720 33,000  Level FlightAware ADS-B
Thu 01:18:35 AM 44.1080 -65.3470 53° Northeast 628 723 33,000  Level FlightAware ADS-B
Thu 01:19:09 AM 44.1680 -65.2330 54° Northeast 627 722 33,000  Level FlightAware ADS-B
Thu 01:19:45 AM 44.2300 -65.1180 53° Northeast 627 722 33,000  Level FlightAware ADS-B
Thu 01:20:19 AM 44.2880 -65.0070 54° Northeast 633 728 33,000  Level FlightAware ADS-B
Thu 01:20:55 AM 44.3500 -64.8880 54° Northeast 633 728 33,000  Level FlightAware ADS-B
Thu 01:21:29 AM 44.4090 -64.7760 54° Northeast 631 726 33,000  Level FlightAware ADS-B
Thu 01:22:05 AM 44.4720 -64.6560 54° Northeast 632 727 33,000  Level FlightAware ADS-B
Thu 01:22:34 AM 44.5200 -64.5630 54° Northeast 632 727 33,000  Level FlightAware ADS-B
Thu 01:23:22 AM 44.6060 -64.3980 54° Northeast 634 730 33,000  Level FlightAware ADS-B
Thu 01:23:57 AM 44.6670 -64.2810 54° Northeast 636 732 33,000  Level FlightAware ADS-B
Thu 01:24:30 AM 44.7210 -64.1760 54° Northeast 636 732 33,000  Level FlightAware ADS-B
Thu 01:25:06 AM 44.7790 -64.0610 55° Northeast 636 732 33,000  Level FlightAware ADS-B
Thu 01:25:42 AM 44.8460 -63.9310 54° Northeast 636 732 33,000  Level FlightAware ADS-B
Thu 01:26:30 AM 44.9260 -63.7730 54° Northeast 638 734 33,000  Level FlightAware ADS-B
Thu 01:27:03 AM 44.9870 -63.6510 55° Northeast 638 734 33,000  Level FlightAware ADS-B
Thu 01:27:38 AM 45.0430 -63.5390 55° Northeast 639 735 33,000  Level FlightAware ADS-B
Thu 01:28:16 AM 45.1110 -63.4040 54° Northeast 639 735 33,000  Level FlightAware ADS-B
Thu 01:28:53 AM 45.1640 -63.2960 55° Northeast 639 735 33,000  Level FlightAware ADS-B
Thu 01:29:30 AM 45.2170 -63.1880 55° Northeast 639 735 33,000  Level FlightAware ADS-B
Thu 01:30:06 AM 45.2690 -63.0830 55° Northeast 639 735 33,000  Level FlightAware ADS-B
Thu 01:30:42 AM 45.3210 -62.9780 55° Northeast 639 735 33,000  Level FlightAware ADS-B
Thu 01:31:18 AM 45.3730 -62.8720 55° Northeast 639 735 33,000  Level FlightAware ADS-B
Thu 01:31:54 AM 45.4250 -62.7670 55° Northeast 639 735 33,000  Level FlightAware ADS-B
Thu 01:32:30 AM 45.4770 -62.6610 55° Northeast 639 735 33,000  Level FlightAware ADS-B
Thu 01:33:06 AM 45.5290 -62.5550 55° Northeast 639 735 33,000  Level FlightAware ADS-B
Thu 01:33:42 AM 45.5810 -62.4500 55° Northeast 639 735 33,000  Level FlightAware ADS-B
Thu 01:34:18 AM 45.6320 -62.3440 55° Northeast 639 735 33,000  Level FlightAware ADS-B
Thu 01:34:54 AM 45.6840 -62.2380 55° Northeast 639 735 33,000  Level FlightAware ADS-B
Thu 01:35:30 AM 45.7360 -62.1310 55° Northeast 639 735 33,000  Level FlightAware ADS-B
Thu 01:36:06 AM 45.7880 -62.0250 55° Northeast 639 735 33,000  Level FlightAware ADS-B
Thu 01:36:49 AM 45.9670 -61.6340 57° Northeast 633 728 33,000  Level FlightAware ADS-B
Thu 01:37:25 AM 46.0280 -61.5050 56° Northeast 632 727 33,000  Level FlightAware ADS-B
Thu 01:37:57 AM 46.0790 -61.3960 56° Northeast 631 726 33,000  Level FlightAware ADS-B
Thu 01:38:33 AM 46.1370 -61.2700 56° Northeast 631 726 33,000  Level FlightAware ADS-B
Thu 01:39:09 AM 46.1950 -61.1450 56° Northeast 632 727 33,000  Level FlightAware ADS-B
Thu 01:39:45 AM 46.2550 -61.0160 56° Northeast 631 726 33,000  Level FlightAware ADS-B
Thu 01:40:17 AM 46.3050 -60.9060 57° Northeast 632 727 33,000  Level FlightAware ADS-B
Thu 01:40:53 AM 46.3630 -60.7790 56° Northeast 629 724 33,000  Level FlightAware ADS-B
Thu 01:41:29 AM 46.4210 -60.6520 56° Northeast 629 724 33,000  Level FlightAware ADS-B
Thu 01:42:05 AM 46.4790 -60.5240 57° Northeast 629 724 33,000  Level FlightAware ADS-B
Thu 01:42:37 AM 46.5300 -60.4120 56° Northeast 629 724 33,000  Level FlightAware ADS-B
Thu 01:43:13 AM 46.5870 -60.2860 57° Northeast 628 723 33,000  Level FlightAware ADS-B
Thu 01:43:49 AM 46.6450 -60.1570 57° Northeast 627 722 33,000  Level FlightAware ADS-B
Thu 01:44:25 AM 46.7010 -60.0300 57° Northeast 628 723 33,000  Level FlightAware ADS-B
Thu 01:44:57 AM 46.7530 -59.9150 57° Northeast 627 722 33,000  Level FlightAware ADS-B
Thu 01:45:33 AM 46.8050 -59.7870 59° Northeast 625 719 33,000  Level FlightAware ADS-B
Thu 01:46:09 AM 46.8580 -59.6540 60° Northeast 624 718 33,000  Level FlightAware ADS-B
Thu 01:46:45 AM 46.9080 -59.5260 60° Northeast 622 716 33,000  Level FlightAware ADS-B
Thu 01:47:17 AM 46.9550 -59.4070 60° Northeast 622 716 33,000  Level FlightAware ADS-B
Thu 01:47:53 AM 47.0070 -59.2760 60° Northeast 621 715 33,000  Level FlightAware ADS-B
Thu 01:48:27 AM 47.0550 -59.1510 61° Northeast 621 715 33,000  Level FlightAware ADS-B
Thu 01:48:57 AM 47.0980 -59.0420 60° Northeast 621 715 33,000  Level FlightAware ADS-B
Thu 01:49:37 AM 47.1550 -58.8960 60° Northeast 624 718 33,000  Level FlightAware ADS-B
Thu 01:50:13 AM 47.2080 -58.7620 60° Northeast 625 719 33,000  Level FlightAware ADS-B
Thu 01:50:43 AM 47.2500 -58.6540 60° Northeast 626 720 33,000  Level FlightAware ADS-B
Thu 01:51:30 AM 47.3120 -58.4940 60° Northeast 627 722 33,000  Level FlightAware ADS-B
Thu 01:52:10 AM 47.3740 -58.3330 60° Northeast 626 720 33,000  Level FlightAware ADS-B
Thu 01:52:45 AM 47.4240 -58.2020 61° Northeast 625 719 33,000  Level FlightAware ADS-B
Thu 01:53:25 AM 47.4820 -58.0520 60° Northeast 623 717 33,000  Level FlightAware ADS-B
Thu 01:54:00 AM 47.5280 -57.9310 61° Northeast 621 715 33,000  Level FlightAware ADS-B
Thu 01:54:36 AM 47.5800 -57.7950 60° Northeast 620 713 33,000  Level FlightAware ADS-B
Thu 01:55:10 AM 47.6280 -57.6660 61° Northeast 620 713 33,000  Level FlightAware ADS-B
Thu 01:55:50 AM 47.6840 -57.5170 61° Northeast 619 712 33,000  Level FlightAware ADS-B
Thu 01:56:20 AM 47.7240 -57.4110 61° Northeast 619 712 33,000  Level FlightAware ADS-B
Thu 01:56:55 AM 47.7740 -57.2760 61° Northeast 617 710 33,000  Level FlightAware ADS-B
Thu 01:57:30 AM 47.8220 -57.1470 61° Northeast 617 710 33,000  Level FlightAware ADS-B
Thu 01:58:10 AM 47.8760 -56.9950 62° Northeast 615 708 33,000  Level FlightAware ADS-B
Thu 01:58:45 AM 47.9220 -56.8630 62° Northeast 613 705 33,000  Level FlightAware ADS-B
Thu 01:59:15 AM 47.9620 -56.7510 62° Northeast 611 703 33,000  Level FlightAware ADS-B
Thu 01:59:50 AM 48.0070 -56.6220 62° Northeast 609 701 33,000  Level FlightAware ADS-B
Thu 02:00:30 AM 48.0590 -56.4730 62° Northeast 609 701 33,000  Level FlightAware ADS-B
Thu 02:01:00 AM 48.0960 -56.3660 63° Northeast 610 702 33,000  Level FlightAware ADS-B
Thu 02:01:35 AM 48.1430 -56.2290 63° Northeast 610 702 33,000  Level FlightAware ADS-B
Thu 02:02:15 AM 48.1940 -56.0780 63° Northeast 609 701 33,000  Level FlightAware ADS-B
Thu 02:02:45 AM 48.2320 -55.9670 63° Northeast 610 702 33,000  Level FlightAware ADS-B
Thu 02:03:20 AM 48.2760 -55.8380 63° Northeast 609 701 33,000  Level FlightAware ADS-B
Thu 02:04:00 AM 48.3280 -55.6820 63° Northeast 609 701 33,000  Level FlightAware ADS-B
Thu 02:04:35 AM 48.3720 -55.5500 63° Northeast 609 701 33,000  Level FlightAware ADS-B
Thu 02:05:05 AM 48.4090 -55.4390 63° Northeast 609 701 33,000  Level FlightAware ADS-B
Thu 02:05:40 AM 48.4540 -55.3030 63° Northeast 607 699 33,000  Level FlightAware ADS-B
Thu 02:06:20 AM 48.5040 -55.1530 63° Northeast 607 699 33,000  Level FlightAware ADS-B
Thu 02:06:50 AM 48.5420 -55.0390 63° Northeast 606 697 33,000  Level FlightAware ADS-B
Thu 02:07:25 AM 48.5850 -54.9060 64° Northeast 605 696 33,000  Level FlightAware ADS-B
Thu 02:08:05 AM 48.6340 -54.7560 64° Northeast 606 697 33,000  Level FlightAware ADS-B
Thu 02:08:35 AM 48.6720 -54.6410 63° Northeast 607 699 33,000  Level FlightAware ADS-B
Thu 02:09:10 AM 48.7150 -54.5080 64° Northeast 608 700 33,000  Level FlightAware ADS-B
Thu 02:09:50 AM 48.7650 -54.3550 64° Northeast 609 701 33,000  Level FlightAware ADS-B
Thu 02:10:20 AM 48.8020 -54.2390 64° Northeast 608 700 33,000  Level FlightAware ADS-B
Thu 02:10:55 AM 48.8460 -54.1040 64° Northeast 609 701 33,000 80 Level FlightAware ADS-B
Thu 02:11:35 AM 48.8940 -53.9510 64° Northeast 607 699 33,100 167 Climbing FlightAware ADS-B
Thu 02:12:07 AM 48.9300 -53.8370 64° Northeast 607 699 33,200 257 Climbing FlightAware ADS-B
Thu 02:12:45 AM 48.9780 -53.6840 64° Northeast 611 703 33,400 353 Climbing FlightAware ADS-B
Thu 02:13:15 AM 49.0130 -53.5700 65° Northeast 610 702 33,600 462 Climbing FlightAware ADS-B
Thu 02:13:50 AM 49.0560 -53.4290 65° Northeast 608 700 33,900 480 Climbing FlightAware ADS-B
Thu 02:14:30 AM 49.1030 -53.2740 65° Northeast 607 699 34,200 514 Climbing FlightAware ADS-B
Thu 02:15:00 AM 49.1390 -53.1560 65° Northeast 608 700 34,500 554 Climbing FlightAware ADS-B
Thu 02:15:35 AM 49.1780 -53.0290 65° Northeast 605 696 34,800 429 Climbing FlightAware ADS-B
Thu 02:16:10 AM 49.2210 -52.8850 65° Northeast 604 695 35,000 171 Climbing FlightAware ADS-B
Thu 02:16:45 AM 49.2580 -52.7620 65° Northeast 603 694 35,000  Level FlightAware ADS-B
Thu 02:17:20 AM 49.3020 -52.6140 65° Northeast 603 694 35,000  Level FlightAware ADS-B
Thu 02:17:55 AM 49.3430 -52.4770 65° Northeast 603 694 35,000  Level FlightAware ADS-B
Thu 02:18:45 AM 49.3990 -52.2850 66° East 604 695 35,000  Level FlightAware ADS-B
Thu 02:19:25 AM 49.4440 -52.1320 66° East 605 696 35,000  Level FlightAware ADS-B
Thu 02:19:57 AM 49.4800 -52.0080 66° East 605 696 35,000  Level FlightAware ADS-B
Thu 02:20:52 AM 49.5390 -51.8020 66° East 605 696 35,000  Level FlightAware ADS-B
Thu 02:21:28 AM 49.5740 -51.6810 66° East 605 696 35,000  Level FlightAware ADS-B
Thu 02:22:04 AM 49.6090 -51.5600 66° East 605 696 35,000  Level FlightAware ADS-B
Thu 02:22:40 AM 49.6440 -51.4400 66° East 605 696 35,000  Level FlightAware ADS-B
Thu 02:23:16 AM 49.6780 -51.3190 66° East 605 696 35,000  Level FlightAware ADS-B
Thu 02:23:52 AM 49.7130 -51.1980 66° East 605 696 35,000  Level FlightAware ADS-B
Thu 02:24:29 AM 49.7490 -51.0730 66° East 605 696 35,000  Level FlightAware ADS-B
Thu 02:25:06 AM 49.7850 -50.9490 66° East 605 696 35,000  Level FlightAware ADS-B
Thu 02:25:42 AM 49.8200 -50.8280 66° East 605 696 35,000  Level FlightAware ADS-B
Thu 02:26:18 AM 49.8540 -50.7060 67° East 605 696 35,000  Level FlightAware ADS-B
Thu 02:26:54 AM 49.8890 -50.5850 66° East 605 696 35,000  Level FlightAware ADS-B
Thu 02:27:30 AM 49.9240 -50.4630 66° East 605 696 35,000  Level FlightAware ADS-B
Thu 02:28:06 AM 49.9590 -50.3420 66° East 605 696 35,000  Level FlightAware ADS-B
Thu 02:28:42 AM 49.9940 -50.2200 66° East 605 696 35,000  Level FlightAware ADS-B
Thu 02:29:18 AM 50.0280 -50.0980 67° East 605 696 35,000  Level FlightAware ADS-B
Thu 02:29:54 AM 50.0630 -49.9760 66° East 605 696 35,000  Level FlightAware ADS-B
Thu 02:31:22 AM 50.0833 -49.2000 66° East 610 702 35,000  Level Gander Center
Thu 02:32:22 AM 50.1333 -48.9333 74° East 610 702 35,000  Level Gander Center
Thu 02:34:22 AM 50.1833 -48.4167 81° East 590 679 35,000  Level Gander Center
Thu 02:35:22 AM 50.2333 -48.1667 73° East 600 690 35,000  Level Gander Center
Thu 02:36:22 AM 50.2667 -47.9000 79° East 610 702 35,000  Level Gander Center
Thu 02:37:22 AM 50.2833 -47.6833 83° East 600 690 35,000  Level Gander Center
Thu 02:39:00 AM 50.3317 -47.3001 79° East  Level FlightAware Approximate
Thu 02:46:00 AM 50.5247 -45.6490 79° East  Level FlightAware Approximate
Thu 02:47:00 AM 50.5503 -45.4120 80° East  Level FlightAware Approximate
Thu 02:48:00 AM 50.5755 -45.1749 80° East  Level FlightAware Approximate
Thu 02:49:00 AM 50.6002 -44.9374 81° East  Level FlightAware Approximate
Thu 02:50:00 AM 50.6244 -44.6997 81° East  Level FlightAware Approximate
Thu 02:51:00 AM 50.6481 -44.4618 81° East  Level FlightAware Approximate
Thu 02:52:00 AM 50.6714 -44.2236 81° East  Level FlightAware Approximate
Thu 02:53:00 AM 50.6941 -43.9852 81° East  Level FlightAware Approximate
Thu 02:54:00 AM 50.7164 -43.7465 82° East  Level FlightAware Approximate
Thu 02:55:00 AM 50.7382 -43.5077 82° East  Level FlightAware Approximate
Thu 02:56:00 AM 50.7595 -43.2686 82° East  Level FlightAware Approximate
Thu 02:57:00 AM 50.7803 -43.0293 82° East  Level FlightAware Approximate
Thu 02:58:00 AM 50.8006 -42.7898 82° East  Level FlightAware Approximate
Thu 02:59:00 AM 50.8204 -42.5501 82° East  Level FlightAware Approximate
Thu 03:00:00 AM 50.8397 -42.3102 83° East  Level FlightAware Approximate
Thu 03:01:00 AM 50.8586 -42.0700 83° East  Level FlightAware Approximate
Thu 03:02:00 AM 50.8769 -41.8298 83° East  Level FlightAware Approximate
Thu 03:03:00 AM 50.8947 -41.5893 83° East  Level FlightAware Approximate
Thu 03:04:00 AM 50.9121 -41.3486 83° East  Level FlightAware Approximate
Thu 03:05:00 AM 50.9290 -41.1077 84° East  Level FlightAware Approximate
Thu 03:06:00 AM 50.9453 -40.8667 84° East  Level FlightAware Approximate
Thu 03:07:00 AM 50.9612 -40.6255 84° East  Level FlightAware Approximate
Thu 03:08:00 AM 50.9766 -40.3842 84° East  Level FlightAware Approximate
Thu 03:09:00 AM 50.9915 -40.1427 84° East  Level FlightAware Approximate
Thu 03:09:00 AM 51.0000 -40.0000 86° East 611 703 35,000  Level ETMS Enhanced Traffic Management System
Thu 03:10:00 AM 51.0042 -39.9008 86° East  Level FlightAware Approximate
Thu 03:11:00 AM 51.0141 -39.6585 86° East  Level FlightAware Approximate
Thu 03:12:00 AM 51.0235 -39.4161 86° East  Level FlightAware Approximate
Thu 03:13:00 AM 51.0324 -39.1736 87° East  Level FlightAware Approximate
Thu 03:14:00 AM 51.0408 -38.9311 87° East  Level FlightAware Approximate
Thu 03:15:00 AM 51.0786 -37.5705 88° East 611 703 35,000  Level FlightAware Transoceanic
Thu 03:16:00 AM 51.0842 -37.3001 88° East 611 703 35,000  Level FlightAware Transoceanic
Thu 03:17:00 AM 51.0892 -37.0296 88° East 611 703 35,000  Level FlightAware Transoceanic
Thu 03:18:00 AM 51.0936 -36.7591 89° East 611 703 35,000  Level FlightAware Transoceanic
Thu 03:19:00 AM 51.0973 -36.4886 89° East 611 703 35,000  Level FlightAware Transoceanic
Thu 03:20:00 AM 51.1005 -36.2180 89° East 611 703 35,000  Level FlightAware Transoceanic
Thu 03:21:00 AM 51.1030 -35.9473 89° East 611 703 35,000  Level FlightAware Transoceanic
Thu 03:22:00 AM 51.1048 -35.6767 89° East 611 703 35,000  Level FlightAware Transoceanic
Thu 03:23:00 AM 51.1061 -35.4060 90° East 611 703 35,000  Level FlightAware Transoceanic
Thu 03:24:00 AM 51.1067 -35.1353 90° East 611 703 35,000  Level FlightAware Transoceanic
Thu 03:25:00 AM 51.1067 -34.8647 90° East 611 703 35,000  Level FlightAware Transoceanic
Thu 03:26:00 AM 51.1061 -34.5940 90° East 611 703 35,000  Level FlightAware Transoceanic
Thu 03:27:00 AM 51.1048 -34.3233 91° East 611 703 35,000  Level FlightAware Transoceanic
Thu 03:28:00 AM 51.1030 -34.0527 91° East 611 703 35,000  Level FlightAware Transoceanic
Thu 03:29:00 AM 51.1005 -33.7820 91° East 611 703 35,000  Level FlightAware Transoceanic
Thu 03:30:00 AM 51.0973 -33.5114 91° East 611 703 35,000  Level FlightAware Transoceanic
Thu 03:31:00 AM 51.0936 -33.2409 91° East 611 703 35,000  Level FlightAware Transoceanic
Thu 03:32:00 AM 51.0892 -32.9704 92° East 611 703 35,000  Level FlightAware Transoceanic
Thu 03:33:00 AM 51.0842 -32.6999 92° East 611 703 35,000  Level FlightAware Transoceanic
Thu 03:34:00 AM 51.0786 -32.4295 92° East 611 703 35,000  Level FlightAware Transoceanic
Thu 03:35:00 AM 51.0724 -32.1592 92° East 611 703 35,000  Level FlightAware Transoceanic
Thu 03:36:00 AM 51.0655 -31.8890 92° East 611 703 35,000  Level FlightAware Transoceanic
Thu 03:37:00 AM 51.0580 -31.6188 93° East 611 703 35,000  Level FlightAware Transoceanic
Thu 03:38:00 AM 51.0499 -31.3487 93° East 611 703 35,000  Level FlightAware Transoceanic
Thu 03:39:00 AM 51.0411 -31.0788 93° East 611 703 35,000  Level FlightAware Transoceanic
Thu 03:40:00 AM 51.0318 -30.8089 93° East 611 703 35,000  Level FlightAware Transoceanic
Thu 03:41:00 AM 51.0218 -30.5391 93° East 611 703 35,000  Level FlightAware Transoceanic
Thu 03:42:00 AM 51.0112 -30.2695 94° East 611 703 35,000  Level FlightAware Transoceanic
Thu 03:43:00 AM 51.0012 -30.0273 94° East  Level FlightAware Approximate
Thu 03:44:00 AM 50.9906 -29.7851 94° East  Level FlightAware Approximate
Thu 03:45:00 AM 51.0261 -29.8165 77° East  Level FlightAware Approximate
Thu 03:46:00 AM 51.0594 -29.5794 77° East  Level FlightAware Approximate
Thu 03:46:00 AM 51.0000 -30.0000 77° East 566 651 35,000  Level ETMS Enhanced Traffic Management System
Thu 03:47:00 AM 51.0923 -29.3419 77° East  Level FlightAware Approximate
Thu 03:48:00 AM 51.1246 -29.1041 78° East  Level FlightAware Approximate
Thu 03:49:00 AM 51.1565 -28.8660 78° East  Level FlightAware Approximate
Thu 03:50:00 AM 51.1879 -28.6275 78° East  Level FlightAware Approximate
Thu 03:51:00 AM 51.2187 -28.3888 78° East  Level FlightAware Approximate
Thu 03:52:00 AM 51.2675 -28.0378 79° East 566 651 35,000  Level FlightAware Transoceanic
Thu 03:53:00 AM 51.2986 -27.7910 79° East 566 651 35,000  Level FlightAware Transoceanic
Thu 03:54:00 AM 51.3292 -27.5438 79° East 566 651 35,000  Level FlightAware Transoceanic
Thu 03:55:00 AM 51.3593 -27.2964 79° East 566 651 35,000  Level FlightAware Transoceanic
Thu 03:56:00 AM 51.3889 -27.0485 79° East 566 651 35,000  Level FlightAware Transoceanic
Thu 03:57:00 AM 51.4179 -26.8004 79° East 566 651 35,000  Level FlightAware Transoceanic
Thu 03:58:00 AM 51.4464 -26.5520 80° East 566 651 35,000  Level FlightAware Transoceanic
Thu 03:59:00 AM 51.4744 -26.3032 80° East 566 651 35,000  Level FlightAware Transoceanic
Thu 04:00:00 AM 51.5018 -26.0541 80° East 566 651 35,000  Level FlightAware Transoceanic
Thu 04:01:00 AM 51.5288 -25.8048 80° East 566 651 35,000  Level FlightAware Transoceanic
Thu 04:02:00 AM 51.5552 -25.5551 80° East 566 651 35,000  Level FlightAware Transoceanic
Thu 04:03:00 AM 51.5810 -25.3052 81° East 566 651 35,000  Level FlightAware Transoceanic
Thu 04:04:00 AM 51.6064 -25.0550 81° East 566 651 35,000  Level FlightAware Transoceanic
Thu 04:05:00 AM 51.6312 -24.8045 81° East 566 651 35,000  Level FlightAware Transoceanic
Thu 04:06:00 AM 51.6554 -24.5537 81° East 566 651 35,000  Level FlightAware Transoceanic
Thu 04:07:00 AM 51.6792 -24.3027 81° East 566 651 35,000  Level FlightAware Transoceanic
Thu 04:08:00 AM 51.7024 -24.0514 82° East 566 651 35,000  Level FlightAware Transoceanic
Thu 04:09:00 AM 51.7250 -23.7999 82° East 566 651 35,000  Level FlightAware Transoceanic
Thu 04:10:00 AM 51.7472 -23.5481 82° East 566 651 35,000  Level FlightAware Transoceanic
Thu 04:11:00 AM 51.7687 -23.2960 82° East 566 651 35,000  Level FlightAware Transoceanic
Thu 04:12:00 AM 51.7898 -23.0438 82° East 566 651 35,000  Level FlightAware Transoceanic
Thu 04:13:00 AM 51.8103 -22.7913 83° East 566 651 35,000  Level FlightAware Transoceanic
Thu 04:14:00 AM 51.8303 -22.5385 83° East 566 651 35,000  Level FlightAware Transoceanic
Thu 04:15:00 AM 51.8497 -22.2856 83° East 566 651 35,000  Level FlightAware Transoceanic
Thu 04:16:00 AM 51.8686 -22.0324 83° East 566 651 35,000  Level FlightAware Transoceanic
Thu 04:17:00 AM 51.8869 -21.7790 83° East 566 651 35,000  Level FlightAware Transoceanic
Thu 04:18:00 AM 51.9047 -21.5254 84° East 566 651 35,000  Level FlightAware Transoceanic
Thu 04:19:00 AM 51.9220 -21.2717 84° East 566 651 35,000  Level FlightAware Transoceanic
Thu 04:20:00 AM 51.9387 -21.0177 84° East 566 651 35,000  Level FlightAware Transoceanic
Thu 04:21:00 AM 51.9548 -20.7635 84° East 566 651 35,000  Level FlightAware Transoceanic
Thu 04:22:00 AM 51.9704 -20.5092 84° East 566 651 35,000  Level FlightAware Transoceanic
Thu 04:23:00 AM 51.9855 -20.2547 85° East 566 651 35,000  Level FlightAware Transoceanic
Thu 04:24:00 AM 51.9996 -20.0077 85° East  Level FlightAware Approximate
Thu 04:25:00 AM 52.0132 -19.7605 85° East  Level FlightAware Approximate
Thu 04:26:00 AM 52.0086 -19.7676 86° East  Level FlightAware Approximate
Thu 04:27:00 AM 52.0170 -19.5263 87° East  Level FlightAware Approximate
Thu 04:28:00 AM 52.0249 -19.2848 87° East  Level FlightAware Approximate
Thu 04:29:00 AM 52.0324 -19.0433 87° East  Level FlightAware Approximate
Thu 04:30:00 AM 52.0393 -18.8017 87° East  Level FlightAware Approximate
Thu 04:31:00 AM 52.0457 -18.5600 87° East  Level FlightAware Approximate
Thu 04:32:00 AM 52.0517 -18.3183 88° East  Level FlightAware Approximate
Thu 04:33:00 AM 52.0572 -18.0765 88° East  Level FlightAware Approximate
Thu 04:34:00 AM 52.0621 -17.8346 88° East  Level FlightAware Approximate
Thu 04:35:00 AM 52.0666 -17.5927 88° East  Level FlightAware Approximate
Thu 04:36:00 AM 52.0706 -17.3508 88° East  Level FlightAware Approximate
Thu 04:37:00 AM 52.0740 -17.1088 89° East  Level FlightAware Approximate
Thu 04:38:00 AM 52.0770 -16.8667 89° East  Level FlightAware Approximate
Thu 04:39:00 AM 52.0795 -16.6247 89° East  Level FlightAware Approximate
Thu 04:40:00 AM 52.0815 -16.3826 89° East  Level FlightAware Approximate
Thu 04:41:00 AM 52.0830 -16.1405 89° East  Level FlightAware Approximate
Thu 04:42:00 AM 52.0840 -15.8983 90° East  Level FlightAware Approximate
Thu 04:43:00 AM 52.0845 -15.6562 90° East  Level FlightAware Approximate
Thu 04:44:00 AM 52.0845 -15.4141 90° East  Level FlightAware Approximate
Thu 04:45:00 AM 52.0840 -15.1720 90° East  Level FlightAware Approximate
Thu 04:46:00 AM 52.0832 -14.9299 90° East  Level FlightAware Approximate
Thu 04:47:00 AM 52.0824 -14.6877 90° East  Level FlightAware Approximate
Thu 04:48:00 AM 52.0811 -14.4456 90° East  Level FlightAware Approximate
Thu 04:49:00 AM 52.0793 -14.2035 91° East  Level FlightAware Approximate
Thu 04:50:00 AM 52.0770 -13.9615 91° East  Level FlightAware Approximate
Thu 04:51:00 AM 52.0742 -13.7194 91° East  Level FlightAware Approximate
Thu 04:52:00 AM 52.0710 -13.4774 91° East  Level FlightAware Approximate
Thu 04:53:00 AM 52.0672 -13.2354 91° East  Level FlightAware Approximate
Thu 04:54:00 AM 52.0629 -12.9935 92° East  Level FlightAware Approximate
Thu 04:54:33 AM 52.0030 -12.0590 92° East 561 646 35,000  Level FlightAware ADS-B
Thu 04:55:00 AM 52.0582 -12.7516 92° East  Level FlightAware Approximate
Thu 04:55:03 AM 52.0030 -11.9410 90° East 561 646 35,000  Level FlightAware ADS-B
Thu 04:55:43 AM 52.0020 -11.7700 90° East 560 644 35,000  Level FlightAware ADS-B
Thu 04:56:14 AM 52.0010 -11.6330 91° East 561 646 35,000  Level FlightAware ADS-B
Thu 04:56:53 AM 51.9990 -11.4620 91° East 562 647 35,000  Level FlightAware ADS-B
Thu 04:57:28 AM 51.9970 -11.3160 91° East 565 650 35,000  Level FlightAware ADS-B
Thu 04:58:10 AM 51.9930 -11.1450 92° East 565 650 35,000  Level FlightAware ADS-B
Thu 04:58:40 AM 51.9910 -11.0270 92° East 566 651 35,000  Level FlightAware ADS-B
Thu 04:59:22 AM 51.9870 -10.8500 92° East 568 654 35,000  Level FlightAware ADS-B
Thu 04:59:53 AM 51.9830 -10.7090 93° East 569 655 35,000  Level FlightAware ADS-B
Thu 05:00:29 AM 51.9790 -10.5530 92° East 572 658 35,000  Level FlightAware ADS-B
Thu 05:01:05 AM 51.9740 -10.3980 93° East 575 662 35,000  Level FlightAware ADS-B
Thu 05:01:47 AM 51.9690 -10.2110 92° East 577 664 35,000  Level FlightAware ADS-B
Thu 05:02:23 AM 51.9640 -10.0570 93° East 573 659 35,000  Level FlightAware ADS-B
Thu 05:02:57 AM 51.9590 -9.9180 93° East 570 656 35,000  Level FlightAware ADS-B
Thu 05:03:32 AM 51.9540 -9.7640 93° East 566 651 35,000  Level FlightAware ADS-B
Thu 05:04:08 AM 51.9490 -9.6170 93° East 565 650 35,000  Level FlightAware ADS-B
Thu 05:04:40 AM 51.9440 -9.4780 93° East 563 648 35,000  Level FlightAware ADS-B
Thu 05:05:14 AM 51.9390 -9.3280 93° East 563 648 35,000  Level FlightAware ADS-B
Thu 05:05:50 AM 51.9330 -9.1770 94° East 564 649 35,000  Level FlightAware ADS-B
Thu 05:06:26 AM 51.9270 -9.0340 94° East 564 649 35,000  Level FlightAware ADS-B
Thu 05:07:06 AM 51.9200 -8.8640 94° East 563 648 35,000  Level FlightAware ADS-B
Thu 05:07:42 AM 51.9140 -8.7150 94° East 560 644 35,000  Level FlightAware ADS-B
Thu 05:08:20 AM 51.8908 -8.5994 94° East 490 564 35,000  Level FlightAware UK
Thu 05:08:22 AM 51.9070 -8.5450 94° East 559 643 35,000  Level FlightAware ADS-B
Thu 05:08:52 AM 51.9010 -8.4220 94° East 558 642 35,000  Level FlightAware ADS-B
Thu 05:09:29 AM 51.8940 -8.2650 94° East 557 641 35,000  Level FlightAware ADS-B
Thu 05:09:59 AM 51.8880 -8.1450 95° East 555 639 35,000  Level FlightAware ADS-B
Thu 05:10:36 AM 51.8810 -7.9890 94° East 552 635 35,000  Level FlightAware ADS-B
Thu 05:11:14 AM 51.8720 -7.8280 95° East 549 632 35,000  Level FlightAware ADS-B
Thu 05:11:47 AM 51.8660 -7.6970 95° East 547 629 35,000  Level FlightAware ADS-B
Thu 05:11:50 AM 51.8524 -7.7306 95° East 492 566 35,000  Level FlightAware UK
Thu 05:12:20 AM 51.8456 -7.6089 95° East 490 564 35,000  Level FlightAware UK
Thu 05:12:24 AM 51.8570 -7.5420 95° East 546 628 35,000  Level FlightAware ADS-B
Thu 05:13:00 AM 51.8490 -7.3960 95° East 545 627 35,000  Level FlightAware ADS-B
Thu 05:13:37 AM 51.8410 -7.2460 95° East 545 627 35,000  Level FlightAware ADS-B
Thu 05:14:08 AM 51.8340 -7.1260 95° East 546 628 35,000  Level FlightAware ADS-B
Thu 05:14:44 AM 51.8260 -6.9790 95° East 547 629 35,000  Level FlightAware ADS-B
Thu 05:15:21 AM 51.8018 -6.8814 95° East 488 562 35,000  Level FlightAware UK
Thu 05:15:22 AM 51.8170 -6.8230 95° East 548 631 35,000  Level FlightAware ADS-B
Thu 05:15:54 AM 51.8090 -6.6920 96° East 548 631 35,000  Level FlightAware ADS-B
Thu 05:16:30 AM 51.7990 -6.5460 96° East 548 631 35,000  Level FlightAware ADS-B
Thu 05:17:03 AM 51.7772 -6.4657 96° East 488 562 35,000  Level FlightAware UK
Thu 05:17:06 AM 51.7920 -6.3990 96° East 548 631 35,000  Level FlightAware ADS-B
Thu 05:17:40 AM 51.7870 -6.2590 93° East 549 632 35,000  Level FlightAware ADS-B
Thu 05:18:14 AM 51.7810 -6.1190 94° East 549 632 35,000  Level FlightAware ADS-B
Thu 05:18:45 AM 51.7633 -6.0484 94° East 490 564 35,000  Level FlightAware UK
Thu 05:18:48 AM 51.7760 -5.9830 94° East 550 633 35,000  Level FlightAware ADS-B
Thu 05:19:24 AM 51.7700 -5.8340 94° East 550 633 35,000  Level FlightAware ADS-B
Thu 05:20:00 AM 51.7640 -5.6850 94° East 550 633 35,000  Level FlightAware ADS-B
Thu 05:20:36 AM 51.7570 -5.5370 94° East 551 634 35,000  Level FlightAware ADS-B
Thu 05:21:12 AM 51.7510 -5.3940 94° East 551 634 35,000  Level FlightAware ADS-B
Thu 05:21:44 AM 51.7440 -5.2630 95° East 552 635 35,000  Level FlightAware ADS-B
Thu 05:22:20 AM 51.7370 -5.1140 94° East 553 636 35,000  Level FlightAware ADS-B
Thu 05:22:56 AM 51.7300 -4.9670 94° East 552 635 35,000  Level FlightAware ADS-B
Thu 05:23:28 AM 51.7230 -4.8350 95° East 551 634 35,000  Level FlightAware ADS-B
Thu 05:24:03 AM 51.7160 -4.6890 94° East 551 634 35,000  Level FlightAware ADS-B
Thu 05:24:40 AM 51.7090 -4.5410 94° East 549 632 35,000  Level FlightAware ADS-B
Thu 05:25:15 AM 51.6908 -4.4470 94° East 498 573 35,000  Level FlightAware UK
Thu 05:25:16 AM 51.7010 -4.3960 94° East 548 631 35,000  Level FlightAware ADS-B
Thu 05:25:50 AM 51.6940 -4.2560 94° East 548 631 35,000  Level FlightAware ADS-B
Thu 05:25:51 AM 51.6837 -4.3005 94° East 498 573 35,000  Level FlightAware UK
Thu 05:26:21 AM 51.6772 -4.1777 94° East 496 571 35,000  Level FlightAware UK
Thu 05:26:26 AM 51.6860 -4.1090 94° East 548 631 35,000  Level FlightAware ADS-B
Thu 05:26:58 AM 51.6780 -3.9790 96° East 547 629 35,000  Level FlightAware ADS-B
Thu 05:27:34 AM 51.6700 -3.8330 95° East 546 628 35,000  Level FlightAware ADS-B
Thu 05:28:11 AM 51.6610 -3.6870 96° East 545 627 35,000  Level FlightAware ADS-B
Thu 05:28:45 AM 51.6438 -3.5939 96° East 496 571 35,000  Level FlightAware UK
Thu 05:28:46 AM 51.6520 -3.5430 96° East 545 627 35,000  Level FlightAware ADS-B
Thu 05:29:20 AM 51.6430 -3.4070 96° East 546 628 35,000  Level FlightAware ADS-B
Thu 05:29:51 AM 51.6268 -3.3261 96° East 496 571 35,000  Level FlightAware UK
Thu 05:29:56 AM 51.6330 -3.2610 96° East 546 628 35,000  Level FlightAware ADS-B
Thu 05:30:16 AM 51.6273 -3.1775 96° East 546 628 35,000  Level FlightAware ADS-B
Thu 05:30:54 AM 51.6167 -3.0246 96° East 545 627 35,000  Level FlightAware ADS-B
Thu 05:31:25 AM 51.6079 -2.9016 97° East 545 627 35,000  Level FlightAware ADS-B
Thu 05:31:57 AM 51.5988 -2.7725 96° East 543 625 35,000  Level FlightAware ADS-B
Thu 05:32:29 AM 51.5893 -2.6417 97° East 543 625 35,000  Level FlightAware ADS-B
Thu 05:33:01 AM 51.5803 -2.5168 97° East 542 624 35,000  Level FlightAware ADS-B
Thu 05:33:31 AM 51.5713 -2.3960 97° East 542 624 35,000  Level FlightAware ADS-B
Thu 05:34:06 AM 51.5610 -2.2561 97° East 541 623 35,000  Level FlightAware ADS-B
Thu 05:34:38 AM 51.5516 -2.1296 97° East 540 621 35,000  Level FlightAware ADS-B
Thu 05:35:11 AM 51.5416 -1.9986 97° East 540 621 35,000  Level FlightAware ADS-B
Thu 05:35:41 AM 51.5323 -1.8774 97° East 539 620 35,000  Level FlightAware ADS-B
Thu 05:36:13 AM 51.5228 -1.7535 97° East 539 620 35,000  Level FlightAware ADS-B
Thu 05:36:43 AM 51.5133 -1.6315 97° East 540 621 35,000  Level FlightAware ADS-B
Thu 05:37:14 AM 51.5039 -1.5122 97° East 540 621 35,000  Level FlightAware ADS-B
Thu 05:37:44 AM 51.4941 -1.3895 97° East 540 621 35,000  Level FlightAware ADS-B
Thu 05:38:16 AM 51.4839 -1.2648 97° East 541 623 35,000  Level FlightAware ADS-B
Thu 05:38:47 AM 51.4735 -1.1420 98° East 542 624 35,000  Level FlightAware ADS-B
Thu 05:39:18 AM 51.4630 -1.0194 98° East 542 624 35,000  Level FlightAware ADS-B
Thu 05:39:53 AM 51.4508 -0.8794 98° East 543 625 35,000  Level FlightAware ADS-B
Thu 05:40:24 AM 51.4398 -0.7543 98° East 543 625 35,000  Level FlightAware ADS-B
Thu 05:40:55 AM 51.4288 -0.6313 98° East 543 625 35,000  Level FlightAware ADS-B
Thu 05:41:27 AM 51.4173 -0.5051 98° East 543 625 35,000  Level FlightAware ADS-B
Thu 05:41:58 AM 51.4059 -0.3813 98° East 544 626 35,000  Level FlightAware ADS-B
Thu 05:42:30 AM 51.3945 -0.2555 98° East 545 627 35,000  Level FlightAware ADS-B
Thu 05:43:01 AM 51.3833 -0.1335 98° East 545 627 35,000  Level FlightAware ADS-B
Thu 05:43:34 AM 51.3705 0.0017 99° East 544 626 35,000  Level FlightAware ADS-B
Thu 05:44:04 AM 51.3593 0.1209 99° East 543 625 35,000  Level FlightAware ADS-B
Thu 05:44:36 AM 51.3473 0.2463 99° East 542 624 35,000  Level FlightAware ADS-B
Thu 05:45:06 AM 51.3377 0.3260 99° East 496 571 35,000  Level FlightAware UK
Thu 05:45:14 AM 51.3326 0.3959 99° East 543 625 35,000  Level FlightAware ADS-B
Thu 05:45:48 AM 51.3190 0.5293 99° East 545 627 35,000  Level FlightAware ADS-B
Thu 05:46:20 AM 51.3061 0.6570 99° East 548 631 35,000  Level FlightAware ADS-B
Thu 05:46:52 AM 51.2927 0.7883 99° East 550 633 35,000  Level FlightAware ADS-B
Thu 05:47:23 AM 51.2798 0.9120 99° East 552 635 35,000  Level FlightAware ADS-B
Thu 05:48:02 AM 51.2635 1.0680 99° East 552 635 35,000  Level FlightAware ADS-B
Thu 05:48:54 AM 51.2419 1.2752 99° East 551 634 35,000  Level FlightAware ADS-B
Thu 05:49:25 AM 51.2322 1.3614 99° East 502 578 35,000  Level FlightAware UK
Thu 05:50:07 AM 51.2110 1.5670 99° East 550 633 35,000  Level FlightAware ADS-B
Thu 05:50:36 AM 51.1990 1.6820 99° East 550 633 35,000  Level FlightAware ADS-B
Thu 05:50:37 AM 51.2022 1.6505 99° East 500 575 35,000  Level FlightAware UK
Thu 05:51:04 AM 51.1870 1.7920 99° East 549 632 35,000  Level FlightAware ADS-B
Thu 05:51:07 AM 51.1896 1.7713 99° East 498 573 35,000  Level FlightAware UK
Thu 05:51:39 AM 51.1531 1.9245 112° Southeast 542 624 35,000  Level FlightAware ADS-B
Thu 05:52:24 AM 51.1040 2.0840 116° Southeast 543 625 35,000  Level FlightAware ADS-B
Thu 05:52:35 AM 51.0925 2.1232 115° Southeast 544 626 35,000  Level FlightAware ADS-B
Thu 05:53:05 AM 51.0606 2.2345 114° Southeast 544 626 35,000  Level FlightAware ADS-B
Thu 05:53:36 AM 51.0310 2.3400 114° Southeast 543 625 35,000  Level FlightAware ADS-B
Thu 05:53:37 AM 51.0313 2.3152 114° Southeast 500 575 35,000  Level FlightAware UK
Thu 05:54:08 AM 50.9980 2.4570 114° Southeast 543 625 35,000  Level FlightAware ADS-B
Thu 05:54:45 AM 50.9590 2.5960 114° Southeast 542 624 35,000  Level FlightAware ADS-B
Thu 05:55:19 AM 50.9272 2.6862 114° Southeast 500 575 35,000  Level FlightAware UK
Thu 05:55:21 AM 50.9200 2.7280 114° Southeast 540 621 35,000  Level FlightAware ADS-B
Thu 05:55:54 AM 50.8830 2.8460 114° Southeast 540 621 35,000  Level FlightAware ADS-B
Thu 05:55:55 AM 50.8859 2.8122 114° Southeast 502 578 35,000  Level FlightAware UK
Thu 05:56:25 AM 50.8527 2.9184 114° Southeast 502 578 35,000  Level FlightAware UK
Thu 05:56:35 AM 50.8390 2.9860 114° Southeast 538 619 35,000  Level FlightAware ADS-B
Thu 05:57:13 AM 50.7980 3.1180 116° Southeast 538 619 35,000  Level FlightAware ADS-B
Thu 05:57:49 AM 50.7570 3.2490 116° Southeast 538 619 35,000  Level FlightAware ADS-B
Thu 05:58:19 AM 50.7270 3.3480 116° Southeast 538 619 35,000  Level FlightAware ADS-B
Thu 05:58:58 AM 50.6820 3.4910 116° Southeast 538 619 35,000  Level FlightAware ADS-B
Thu 05:59:30 AM 50.6470 3.6020 116° Southeast 537 618 35,000  Level FlightAware ADS-B
Thu 06:00:08 AM 50.6040 3.7380 116° Southeast 536 617 35,000  Level FlightAware ADS-B
Thu 06:00:43 AM 50.5660 3.8580 116° Southeast 537 618 35,000  Level FlightAware ADS-B
Thu 06:01:20 AM 50.5260 3.9830 117° Southeast 536 617 35,000  Level FlightAware ADS-B
Thu 06:01:52 AM 50.4900 4.0930 117° Southeast 535 616 35,000  Level FlightAware ADS-B
Thu 06:02:26 AM 50.4510 4.2140 117° Southeast 535 616 35,000  Level FlightAware ADS-B
Thu 06:03:04 AM 50.4090 4.3430 117° Southeast 535 616 35,000  Level FlightAware ADS-B
Thu 06:03:34 AM 50.3750 4.4470 117° Southeast 534 615 35,000  Level FlightAware ADS-B
Thu 06:04:10 AM 50.3330 4.5740 117° Southeast 535 616 35,000  Level FlightAware ADS-B
Thu 06:04:14 AM 50.3308 4.5496 117° Southeast 1 1 35,000  Level FlightAware UK
Thu 06:04:48 AM 50.2930 4.6970 117° Southeast 534 615 35,000  Level FlightAware ADS-B
Thu 06:05:21 AM 50.2550 4.8130 117° Southeast 534 615 35,000  Level FlightAware ADS-B
Thu 06:05:58 AM 50.2130 4.9370 118° Southeast 535 616 35,000  Level FlightAware ADS-B
Thu 06:06:31 AM 50.1730 5.0580 117° Southeast 536 617 35,000  Level FlightAware ADS-B
Thu 06:07:08 AM 50.1310 5.1830 118° Southeast 537 618 35,000  Level FlightAware ADS-B
Thu 06:07:44 AM 50.0950 5.2920 117° Southeast 537 618 35,000  Level FlightAware ADS-B
Thu 06:08:21 AM 50.0460 5.4360 118° Southeast 536 617 35,000  Level FlightAware ADS-B
Thu 06:09:02 AM 50.0000 5.5730 118° Southeast 536 617 35,000  Level FlightAware ADS-B
Thu 06:09:33 AM 49.9640 5.6770 118° Southeast 536 617 35,000  Level FlightAware ADS-B
Thu 06:10:10 AM 49.9210 5.8020 118° Southeast 536 617 35,000  Level FlightAware ADS-B
Thu 06:10:46 AM 49.8800 5.9200 118° Southeast 537 618 35,000  Level FlightAware ADS-B
Thu 06:11:16 AM 49.8420 6.0290 118° Southeast 538 619 35,000  Level FlightAware ADS-B
Thu 06:11:54 AM 49.8060 6.1300 119° Southeast 539 620 35,000  Level FlightAware ADS-B
Thu 06:12:29 AM 49.7570 6.2710 118° Southeast 540 621 35,000  Level FlightAware ADS-B
Thu 06:13:06 AM 49.7140 6.3930 119° Southeast 540 621 35,000  Level FlightAware ADS-B
Thu 06:13:38 AM 49.6740 6.5060 119° Southeast 541 623 35,000  Level FlightAware ADS-B
Thu 06:14:16 AM 49.6270 6.6380 119° Southeast 541 623 35,000  Level FlightAware ADS-B
Thu 06:14:52 AM 49.5840 6.7590 119° Southeast 542 624 35,000  Level FlightAware ADS-B
Thu 06:15:28 AM 49.5400 6.8800 119° Southeast 541 623 35,000  Level FlightAware ADS-B
Thu 06:16:00 AM 49.5020 6.9870 119° Southeast 542 624 35,000  Level FlightAware ADS-B
Thu 06:16:36 AM 49.4570 7.1110 119° Southeast 542 624 35,000  Level FlightAware ADS-B
Thu 06:17:12 AM 49.4130 7.2300 120° Southeast 541 623 35,000  Level FlightAware ADS-B
Thu 06:17:38 AM 49.3830 7.3150 118° Southeast 540 621 35,000  Level FlightAware ADS-B
Thu 06:18:14 AM 49.3390 7.4350 119° Southeast 540 621 35,000  Level FlightAware ADS-B
Thu 06:18:50 AM 49.2940 7.5570 119° Southeast 539 620 35,000  Level FlightAware ADS-B
Thu 06:19:22 AM 49.2540 7.6640 120° Southeast 538 619 35,000  Level FlightAware ADS-B
Thu 06:19:56 AM 49.2140 7.7730 119° Southeast 538 619 35,000  Level FlightAware ADS-B
Thu 06:20:32 AM 49.1680 7.8960 120° Southeast 537 618 35,000  Level FlightAware ADS-B
Thu 06:21:08 AM 49.1250 8.0110 120° Southeast 536 617 35,000  Level FlightAware ADS-B
Thu 06:21:44 AM 49.0810 8.1280 120° Southeast 537 618 35,000  Level FlightAware ADS-B
Thu 06:22:16 AM 49.0410 8.2330 120° Southeast 537 618 35,000  Level FlightAware ADS-B
Thu 06:22:52 AM 48.9960 8.3500 120° Southeast 537 618 35,000  Level FlightAware ADS-B
Thu 06:23:28 AM 48.9510 8.4670 120° Southeast 537 618 35,000  Level FlightAware ADS-B
Thu 06:24:02 AM 48.9080 8.5800 120° Southeast 537 618 35,000  Level FlightAware ADS-B
Thu 06:24:37 AM 48.8620 8.6970 121° Southeast 538 619 35,000  Level FlightAware ADS-B
Thu 06:25:15 AM 48.8150 8.8190 120° Southeast 538 619 35,000  Level FlightAware ADS-B
Thu 06:25:48 AM 48.7750 8.9220 120° Southeast 539 620 35,000  Level FlightAware ADS-B
Thu 06:26:16 AM 48.7490 8.9870 121° Southeast 539 620 35,000  Level FlightAware ADS-B
Thu 06:26:59 AM 48.6830 9.1550 121° Southeast 538 619 35,000  Level FlightAware ADS-B
Thu 06:27:31 AM 48.6400 9.2550 123° Southeast 539 620 35,000  Level FlightAware ADS-B
Thu 06:28:07 AM 48.5760 9.3480 136° Southeast 540 621 35,000  Level FlightAware ADS-B
Thu 06:28:38 AM 48.5170 9.4170 142° Southeast 540 621 35,000  Level FlightAware ADS-B
Thu 06:29:23 AM 48.4200 9.5160 146° Southeast 540 621 35,000  Level FlightAware ADS-B
Thu 06:29:59 AM 48.3430 9.5920 147° Southeast 539 620 35,000  Level FlightAware ADS-B
Thu 06:30:36 AM 48.2680 9.6670 146° Southeast 539 620 35,000  Level FlightAware ADS-B
Thu 06:31:09 AM 48.1990 9.7350 147° Southeast 537 618 35,000  Level FlightAware ADS-B
Thu 06:31:46 AM 48.1240 9.8090 147° Southeast 537 618 35,000  Level FlightAware ADS-B
Thu 06:32:20 AM 48.0540 9.8880 143° Southeast 535 616 35,000  Level FlightAware ADS-B
Thu 06:32:55 AM 47.9930 9.9750 136° Southeast 534 615 35,000  Level FlightAware ADS-B
Thu 06:33:30 AM 47.9320 10.0600 137° Southeast 534 615 35,000  Level FlightAware ADS-B
Thu 06:34:01 AM 47.8740 10.1400 137° Southeast 534 615 35,000  Level FlightAware ADS-B
Thu 06:34:39 AM 47.8050 10.2350 137° Southeast 534 615 35,000  Level FlightAware ADS-B
Thu 06:35:17 AM 47.7360 10.3300 137° Southeast 534 615 35,000  Level FlightAware ADS-B
Thu 06:35:47 AM 47.6820 10.4050 137° Southeast 533 613 35,000  Level FlightAware ADS-B
Thu 06:36:22 AM 47.6180 10.4910 138° Southeast 534 615 35,000  Level FlightAware ADS-B
Thu 06:37:00 AM 47.5510 10.5830 137° Southeast 533 613 35,000  Level FlightAware ADS-B
Thu 06:37:31 AM 47.4950 10.6590 137° Southeast 533 613 35,000  Level FlightAware ADS-B
Thu 06:38:07 AM 47.4280 10.7490 138° Southeast 532 612 35,000  Level FlightAware ADS-B
Thu 06:38:46 AM 47.3550 10.8480 137° Southeast 533 613 35,000  Level FlightAware ADS-B
Thu 06:39:21 AM 47.2930 10.9310 138° Southeast 533 613 35,000  Level FlightAware ADS-B
Thu 06:39:55 AM 47.2300 11.0150 138° Southeast 533 613 35,000  Level FlightAware ADS-B
Thu 06:40:30 AM 47.1670 11.0990 138° Southeast 532 612 35,000  Level FlightAware ADS-B
Thu 06:41:07 AM 47.1000 11.1880 138° Southeast 531 611 35,000  Level FlightAware ADS-B
Thu 06:41:39 AM 47.0400 11.2680 138° Southeast 531 611 35,000  Level FlightAware ADS-B
Thu 06:42:17 AM 46.9720 11.3570 138° Southeast 530 610 35,000  Level FlightAware ADS-B
Thu 06:42:47 AM 46.9170 11.4290 138° Southeast 530 610 35,000  Level FlightAware ADS-B
Thu 06:43:26 AM 46.8470 11.5210 138° Southeast 531 611 35,000  Level FlightAware ADS-B
Thu 06:43:59 AM 46.7840 11.6020 139° Southeast 531 611 35,000 250 Level FlightAware ADS-B
Thu 06:44:38 AM 46.7140 11.6920 139° Southeast 527 606 35,300 455 Climbing FlightAware ADS-B
Thu 06:45:05 AM 46.6660 11.7550 138° Southeast 520 598 35,500 448 Climbing FlightAware ADS-B
Thu 06:45:45 AM 46.5930 11.8480 139° Southeast 521 600 35,800 480 Climbing FlightAware ADS-B
Thu 06:46:20 AM 46.5280 11.9320 138° Southeast 523 602 36,100 514 Climbing FlightAware ADS-B
Thu 06:46:55 AM 46.4640 12.0140 139° Southeast 522 601 36,400 507 Climbing FlightAware ADS-B
Thu 06:47:31 AM 46.4010 12.0950 138° Southeast 521 600 36,700 455 Climbing FlightAware ADS-B
Thu 06:48:01 AM 46.3450 12.1660 139° Southeast 522 601 36,900 257 Climbing FlightAware ADS-B
Thu 06:48:41 AM 46.2700 12.2610 139° Southeast 521 600 37,000 75 Climbing FlightAware ADS-B
Thu 06:49:21 AM 46.1970 12.3520 139° Southeast 518 596 37,000  Level FlightAware ADS-B
Thu 06:49:56 AM 46.1320 12.4340 139° Southeast 516 594 37,000  Level FlightAware ADS-B
Thu 06:50:31 AM 46.0720 12.5090 139° Southeast 514 592 37,000  Level FlightAware ADS-B
Thu 06:51:06 AM 46.0120 12.5840 139° Southeast 512 589 37,000  Level FlightAware ADS-B
Thu 06:51:41 AM 45.9510 12.6610 139° Southeast 516 594 37,000  Level FlightAware ADS-B
Thu 06:52:19 AM 45.8730 12.7600 139° Southeast 511 588 37,000  Level FlightAware ADS-B
Thu 06:52:51 AM 45.8250 12.8350 133° Southeast 502 578 37,000  Level FlightAware ADS-B
Thu 06:53:26 AM 45.7740 12.9270 128° Southeast 500 575 37,000  Level FlightAware ADS-B
Thu 06:54:03 AM 45.7230 13.0200 128° Southeast 499 574 37,000  Level FlightAware ADS-B
Thu 06:54:38 AM 45.6700 13.1150 129° Southeast 499 574 37,000  Level FlightAware ADS-B
Thu 06:55:13 AM 45.6170 13.2100 129° Southeast 503 579 37,000  Level FlightAware ADS-B
Thu 06:55:47 AM 45.5690 13.2960 129° Southeast 497 572 37,000  Level FlightAware ADS-B
Thu 06:56:22 AM 45.5180 13.3870 129° Southeast 496 571 37,000  Level FlightAware ADS-B
Thu 06:56:57 AM 45.4680 13.4770 128° Southeast 497 572 37,000  Level FlightAware ADS-B
Thu 06:57:32 AM 45.4200 13.5620 129° Southeast 496 571 37,000  Level FlightAware ADS-B
Thu 06:58:07 AM 45.3660 13.6560 129° Southeast 497 572 37,000  Level FlightAware ADS-B
Thu 06:58:42 AM 45.3140 13.7490 128° Southeast 497 572 37,000  Level FlightAware ADS-B
Thu 06:59:17 AM 45.2620 13.8400 129° Southeast 498 573 37,000  Level FlightAware ADS-B
Thu 06:59:52 AM 45.2110 13.9300 129° Southeast 498 573 37,000  Level FlightAware ADS-B
Thu 07:00:27 AM 45.1610 14.0190 129° Southeast 499 574 37,000  Level FlightAware ADS-B
Thu 07:01:02 AM 45.1100 14.1100 128° Southeast 499 574 37,000  Level FlightAware ADS-B
Thu 07:01:37 AM 45.0600 14.1970 129° Southeast 498 573 37,000  Level FlightAware ADS-B
Thu 07:02:17 AM 45.0000 14.3010 129° Southeast 497 572 37,000  Level FlightAware ADS-B
Thu 07:02:52 AM 44.9490 14.3910 129° Southeast 499 574 37,000  Level FlightAware ADS-B
Thu 07:03:27 AM 44.8980 14.4800 129° Southeast 499 574 37,000  Level FlightAware ADS-B
Thu 07:04:07 AM 44.8400 14.5790 130° Southeast 504 580 37,000  Level FlightAware ADS-B
Thu 07:04:53 AM 44.7730 14.6950 129° Southeast 507 583 37,000  Level FlightAware ADS-B
Thu 07:05:28 AM 44.7250 14.7770 129° Southeast 507 583 37,000  Level FlightAware ADS-B
Thu 07:06:21 AM 44.6480 14.9090 129° Southeast 510 587 37,000  Level FlightAware ADS-B
Thu 07:06:50 AM 44.5980 14.9950 129° Southeast 510 587 37,000  Level FlightAware ADS-B
Thu 07:07:33 AM 44.5360 15.0990 130° Southeast 509 586 37,000  Level FlightAware ADS-B
Thu 07:08:08 AM 44.4850 15.1840 130° Southeast 508 585 37,000  Level FlightAware ADS-B
Thu 07:08:43 AM 44.4320 15.2750 129° Southeast 507 583 37,000  Level FlightAware ADS-B
Thu 07:09:23 AM 44.3690 15.3800 130° Southeast 506 582 37,000  Level FlightAware ADS-B
Thu 07:10:02 AM 44.3080 15.4820 130° Southeast 505 581 37,000  Level FlightAware ADS-B
Thu 07:10:32 AM 44.2660 15.5520 130° Southeast 504 580 37,000  Level FlightAware ADS-B
Thu 07:11:16 AM 44.1970 15.6650 130° Southeast 502 578 37,000  Level FlightAware ADS-B
Thu 07:11:51 AM 44.1460 15.7500 130° Southeast 501 577 37,000  Level FlightAware ADS-B
Thu 07:12:26 AM 44.0940 15.8360 130° Southeast 502 578 37,000  Level FlightAware ADS-B
Thu 07:13:00 AM 44.0450 15.9170 130° Southeast 501 577 37,000  Level FlightAware ADS-B
Thu 07:13:40 AM 43.9920 16.0040 130° Southeast 502 578 37,000  Level FlightAware ADS-B
Thu 07:14:09 AM 43.9400 16.0900 130° Southeast 502 578 37,000  Level FlightAware ADS-B
Thu 07:14:44 AM 43.8890 16.1740 130° Southeast 503 579 37,000  Level FlightAware ADS-B
Thu 07:15:23 AM 43.8320 16.2670 130° Southeast 503 579 37,000  Level FlightAware ADS-B
Thu 07:15:58 AM 43.7760 16.3580 130° Southeast 501 577 37,000  Level FlightAware ADS-B
Thu 07:16:32 AM 43.7260 16.4390 130° Southeast 500 575 37,000  Level FlightAware ADS-B
Thu 07:17:07 AM 43.6710 16.5280 130° Southeast 498 573 37,000  Level FlightAware ADS-B
Thu 07:17:41 AM 43.6210 16.6090 130° Southeast 498 573 37,000  Level FlightAware ADS-B
Thu 07:18:16 AM 43.5680 16.6940 131° Southeast 497 572 37,000  Level FlightAware ADS-B
Thu 07:18:50 AM 43.5170 16.7760 131° Southeast 495 570 37,000  Level FlightAware ADS-B
Thu 07:19:30 AM 43.4610 16.8670 130° Southeast 495 570 37,000  Level FlightAware ADS-B
Thu 07:20:05 AM 43.4060 16.9540 131° Southeast 494 568 37,000  Level FlightAware ADS-B
Thu 07:20:44 AM 43.3470 17.0480 131° Southeast 494 568 37,000  Level FlightAware ADS-B
Thu 07:21:19 AM 43.2960 17.1290 131° Southeast 493 567 37,000  Level FlightAware ADS-B
Thu 07:21:53 AM 43.2440 17.2120 131° Southeast 494 568 37,000  Level FlightAware ADS-B
Thu 07:22:28 AM 43.1920 17.2950 131° Southeast 493 567 37,000  Level FlightAware ADS-B
Thu 07:23:07 AM 43.1350 17.3850 131° Southeast 494 568 37,000  Level FlightAware ADS-B
Thu 07:23:38 AM 43.0880 17.4590 131° Southeast 493 567 37,000  Level FlightAware ADS-B
Thu 07:24:14 AM 43.0320 17.5480 131° Southeast 492 566 37,000  Level FlightAware ADS-B
Thu 07:24:50 AM 42.9810 17.6270 131° Southeast 492 566 37,000  Level FlightAware ADS-B
Thu 07:25:27 AM 42.9260 17.7150 130° Southeast 494 568 37,000  Level FlightAware ADS-B
Thu 07:26:02 AM 42.8720 17.7980 132° Southeast 493 567 37,000  Level FlightAware ADS-B
Thu 07:26:34 AM 42.8250 17.8720 131° Southeast 493 567 37,000  Level FlightAware ADS-B
Thu 07:27:10 AM 42.7700 17.9570 131° Southeast 493 567 37,000  Level FlightAware ADS-B
Thu 07:27:44 AM 42.7170 18.0410 131° Southeast 494 568 37,000  Level FlightAware ADS-B
Thu 07:28:20 AM 42.6660 18.1200 131° Southeast 496 571 37,000  Level FlightAware ADS-B
Thu 07:28:51 AM 42.6200 18.1900 132° Southeast 490 564 37,000  Level FlightAware ADS-B
Thu 07:29:26 AM 42.5670 18.2670 133° Southeast 487 560 37,000  Level FlightAware ADS-B
Thu 07:30:06 AM 42.5090 18.3450 135° Southeast 487 560 37,000  Level FlightAware ADS-B
Thu 07:30:41 AM 42.4430 18.4360 134° Southeast 486 559 37,000  Level FlightAware ADS-B
Thu 07:31:16 AM 42.3910 18.5060 135° Southeast 486 559 37,000  Level FlightAware ADS-B
Thu 07:31:47 AM 42.3360 18.5830 134° Southeast 493 567 37,000  Level FlightAware ADS-B
Thu 07:32:27 AM 42.2710 18.6720 135° Southeast 494 568 37,000  Level FlightAware ADS-B
Thu 07:32:57 AM 42.2230 18.7380 134° Southeast 495 570 37,000  Level FlightAware ADS-B
Thu 07:33:35 AM 42.1620 18.8210 135° Southeast 496 571 37,000  Level FlightAware ADS-B
Thu 07:34:11 AM 42.1030 18.9010 135° Southeast 496 571 37,000  Level FlightAware ADS-B
Thu 07:34:47 AM 42.0450 18.9790 135° Southeast 497 572 37,000  Level FlightAware ADS-B
Thu 07:35:21 AM 41.9920 19.0510 135° Southeast 497 572 37,000  Level FlightAware ADS-B
Thu 07:35:56 AM 41.9340 19.1290 135° Southeast 497 572 37,000  Level FlightAware ADS-B
Thu 07:36:30 AM 41.8780 19.2040 135° Southeast 498 573 37,000  Level FlightAware ADS-B
Thu 07:37:06 AM 41.8200 19.2820 135° Southeast 498 573 37,000  Level FlightAware ADS-B
Thu 07:37:42 AM 41.7590 19.3600 136° Southeast 497 572 37,000  Level FlightAware ADS-B
Thu 07:38:14 AM 41.7040 19.4250 139° Southeast 496 571 37,000  Level FlightAware ADS-B
Thu 07:38:50 AM 41.6420 19.4960 139° Southeast 498 573 37,000  Level FlightAware ADS-B
Thu 07:39:26 AM 41.5760 19.5700 140° Southeast 498 573 37,000  Level FlightAware ADS-B
Thu 07:40:04 AM 41.5100 19.6450 140° Southeast 498 573 37,000  Level FlightAware ADS-B
Thu 07:40:34 AM 41.4570 19.7050 140° Southeast 496 571 37,000  Level FlightAware ADS-B
Thu 07:41:12 AM 41.3910 19.7830 138° Southeast 496 571 37,000  Level FlightAware ADS-B
Thu 07:41:48 AM 41.3340 19.8590 135° Southeast 496 571 37,000  Level FlightAware ADS-B
Thu 07:42:17 AM 41.2890 19.9220 134° Southeast 495 570 37,000  Level FlightAware ADS-B
Thu 07:42:55 AM 41.2260 20.0060 135° Southeast 493 567 37,000  Level FlightAware ADS-B
Thu 07:43:31 AM 41.1700 20.0820 134° Southeast 492 566 37,000  Level FlightAware ADS-B
Thu 07:44:07 AM 41.1120 20.1600 135° Southeast 491 565 37,000  Level FlightAware ADS-B
Thu 07:44:39 AM 41.0600 20.2300 135° Southeast 490 564 37,000  Level FlightAware ADS-B
Thu 07:45:15 AM 41.0060 20.3020 135° Southeast 487 560 37,000  Level FlightAware ADS-B
Thu 07:45:53 AM 40.9430 20.3860 135° Southeast 486 559 37,000  Level FlightAware ADS-B
Thu 07:46:29 AM 40.8850 20.4620 135° Southeast 487 560 37,000  Level FlightAware ADS-B
Thu 07:47:01 AM 40.8350 20.5290 135° Southeast 487 560 37,000  Level FlightAware ADS-B
Thu 07:47:36 AM 40.7820 20.5990 135° Southeast 488 562 37,000  Level FlightAware ADS-B
Thu 07:48:11 AM 40.7230 20.6740 136° Southeast 486 559 37,000  Level FlightAware ADS-B
Thu 07:48:45 AM 40.6660 20.7430 137° Southeast 485 558 37,000  Level FlightAware ADS-B
Thu 07:49:21 AM 40.6060 20.8150 138° Southeast 484 557 37,000  Level FlightAware ADS-B
Thu 07:49:58 AM 40.5460 20.8870 138° Southeast 484 557 37,000  Level FlightAware ADS-B
Thu 07:50:31 AM 40.4910 20.9550 137° Southeast 482 555 37,000  Level FlightAware ADS-B
Thu 07:51:07 AM 40.4340 21.0320 134° Southeast 488 562 37,000  Level FlightAware ADS-B
Thu 07:51:43 AM 40.3820 21.1100 131° Southeast 489 563 37,000  Level FlightAware ADS-B
Thu 07:52:19 AM 40.3290 21.1890 131° Southeast 488 562 37,000  Level FlightAware ADS-B
Thu 07:52:51 AM 40.2790 21.2620 132° Southeast 488 562 37,000  Level FlightAware ADS-B
Thu 07:53:27 AM 40.2240 21.3400 133° Southeast 488 562 37,000  Level FlightAware ADS-B
Thu 07:54:03 AM 40.1700 21.4180 132° Southeast 488 562 37,000  Level FlightAware ADS-B
Thu 07:54:39 AM 40.1140 21.4970 133° Southeast 490 564 37,000  Level FlightAware ADS-B
Thu 07:55:11 AM 40.0660 21.5660 132° Southeast 491 565 37,000  Level FlightAware ADS-B
Thu 07:55:45 AM 40.0130 21.6410 133° Southeast 491 565 37,000  Level FlightAware ADS-B
Thu 07:56:24 AM 39.9530 21.7260 133° Southeast 494 568 37,000  Level FlightAware ADS-B
Thu 07:56:55 AM 39.9050 21.7960 132° Southeast 494 568 37,000  Level FlightAware ADS-B
Thu 07:57:27 AM 39.8550 21.8670 133° Southeast 496 571 37,000  Level FlightAware ADS-B
Thu 07:58:06 AM 39.7970 21.9500 132° Southeast 496 571 37,000  Level FlightAware ADS-B
Thu 07:58:41 AM 39.7430 22.0270 132° Southeast 496 571 37,000  Level FlightAware ADS-B
Thu 07:59:17 AM 39.6850 22.1100 132° Southeast 497 572 37,000  Level FlightAware ADS-B
Thu 07:59:49 AM 39.6370 22.1780 132° Southeast 498 573 37,000  Level FlightAware ADS-B
Thu 08:00:25 AM 39.5800 22.2580 133° Southeast 499 574 37,000  Level FlightAware ADS-B
Thu 08:01:01 AM 39.5240 22.3370 133° Southeast 499 574 37,000  Level FlightAware ADS-B
Thu 08:01:37 AM 39.4680 22.4170 132° Southeast 498 573 37,000  Level FlightAware ADS-B
Thu 08:02:13 AM 39.4110 22.4960 133° Southeast 498 573 37,000  Level FlightAware ADS-B
Thu 08:02:45 AM 39.3600 22.5680 132° Southeast 499 574 37,000  Level FlightAware ADS-B
Thu 08:03:22 AM 39.3040 22.6460 133° Southeast 498 573 37,000  Level FlightAware ADS-B
Thu 08:03:57 AM 39.2470 22.7250 133° Southeast 499 574 37,000  Level FlightAware ADS-B
Thu 08:04:29 AM 39.1980 22.7950 132° Southeast 499 574 37,000  Level FlightAware ADS-B
Thu 08:05:13 AM 39.1360 22.8810 133° Southeast 499 574 37,000  Level FlightAware ADS-B
Thu 08:05:47 AM 39.0830 22.9530 133° Southeast 500 575 37,000  Level FlightAware ADS-B
Thu 08:06:22 AM 39.0290 23.0280 133° Southeast 501 577 37,000  Level FlightAware ADS-B
Thu 08:06:59 AM 38.9620 23.1170 134° Southeast 502 578 37,000  Level FlightAware ADS-B
Thu 08:07:35 AM 38.9100 23.1890 133° Southeast 502 578 37,000  Level FlightAware ADS-B
Thu 08:08:15 AM 38.8410 23.2810 134° Southeast 502 578 37,000  Level FlightAware ADS-B
Thu 08:08:52 AM 38.7800 23.3640 133° Southeast 502 578 37,000  Level FlightAware ADS-B
Thu 08:09:25 AM 38.7290 23.4330 133° Southeast 502 578 37,000  Level FlightAware ADS-B
Thu 08:10:02 AM 38.6670 23.5160 134° Southeast 502 578 37,000  Level FlightAware ADS-B
Thu 08:10:35 AM 38.6150 23.5860 134° Southeast 502 578 37,000  Level FlightAware ADS-B
Thu 08:11:19 AM 38.5520 23.6720 133° Southeast 496 571 37,000  Level FlightAware ADS-B
Thu 08:11:54 AM 38.5050 23.7340 134° Southeast 496 571 37,000  Level FlightAware ADS-B
Thu 08:12:25 AM 38.4440 23.8160 134° Southeast 496 571 37,000  Level FlightAware ADS-B
Thu 08:13:02 AM 38.3830 23.8970 134° Southeast 497 572 37,000  Level FlightAware ADS-B
Thu 08:13:34 AM 38.3320 23.9650 134° Southeast 498 573 37,000  Level FlightAware ADS-B
Thu 08:14:08 AM 38.2790 24.0370 133° Southeast 498 573 37,000  Level FlightAware ADS-B
Thu 08:14:48 AM 38.2180 24.1180 134° Southeast 500 575 37,000  Level FlightAware ADS-B
Thu 08:15:29 AM 38.1530 24.2040 134° Southeast 506 582 37,000 320 Level FlightAware ADS-B
Thu 08:16:03 AM 38.0910 24.2850 134° Southeast 493 567 37,400 545 Climbing FlightAware ADS-B
Thu 08:16:35 AM 38.0390 24.3520 135° Southeast 489 563 37,600 493 Climbing FlightAware ADS-B
Thu 08:17:16 AM 37.9730 24.4370 135° Southeast 491 565 38,000 474 Climbing FlightAware ADS-B
Thu 08:17:51 AM 37.9250 24.4980 135° Southeast 493 567 38,200 417 Climbing FlightAware ADS-B
Thu 08:18:28 AM 37.8590 24.5840 134° Southeast 492 566 38,500 538 Climbing FlightAware ADS-B
Thu 08:19:09 AM 37.7880 24.6760 134° Southeast 497 572 38,900 411 Climbing FlightAware ADS-B
Thu 08:19:41 AM 37.7370 24.7420 134° Southeast 497 572 39,000 88 Climbing FlightAware ADS-B
Thu 08:20:17 AM 37.6830 24.8200 131° Southeast 500 575 39,000  Level FlightAware ADS-B
Thu 08:20:53 AM 37.6330 24.9030 127° Southeast 501 577 39,000  Level FlightAware ADS-B
Thu 08:21:29 AM 37.5830 24.9920 125° Southeast 502 578 39,000  Level FlightAware ADS-B
Thu 08:22:01 AM 37.5420 25.0640 126° Southeast 502 578 39,000  Level FlightAware ADS-B
Thu 08:22:39 AM 37.4880 25.1590 126° Southeast 503 579 39,000  Level FlightAware ADS-B
Thu 08:23:15 AM 37.4400 25.2450 125° Southeast 504 580 39,000  Level FlightAware ADS-B
Thu 08:23:49 AM 37.3940 25.3260 126° Southeast 505 581 39,000  Level FlightAware ADS-B
Thu 08:24:21 AM 37.3510 25.4030 125° Southeast 504 580 39,000  Level FlightAware ADS-B
Thu 08:24:57 AM 37.3020 25.4890 126° Southeast 504 580 39,000  Level FlightAware ADS-B
Thu 08:25:33 AM 37.2540 25.5750 125° Southeast 504 580 39,000  Level FlightAware ADS-B
Thu 08:26:09 AM 37.2050 25.6610 126° Southeast 504 580 39,000  Level FlightAware ADS-B
Thu 08:26:41 AM 37.1620 25.7370 125° Southeast 504 580 39,000  Level FlightAware ADS-B
Thu 08:27:17 AM 37.1130 25.8230 126° Southeast 503 579 39,000  Level FlightAware ADS-B
Thu 08:27:53 AM 37.0650 25.9070 126° Southeast 503 579 39,000  Level FlightAware ADS-B
Thu 08:28:21 AM 37.0260 25.9760 125° Southeast 503 579 39,000  Level FlightAware ADS-B
Thu 08:29:03 AM 36.9700 26.0730 126° Southeast 503 579 39,000  Level FlightAware ADS-B
Thu 08:29:39 AM 36.9200 26.1590 126° Southeast 503 579 39,000  Level FlightAware ADS-B
Thu 08:30:14 AM 36.8730 26.2400 126° Southeast 504 580 39,000  Level FlightAware ADS-B
Thu 08:30:46 AM 36.8290 26.3160 126° Southeast 504 580 39,000  Level FlightAware ADS-B
Thu 08:31:23 AM 36.7780 26.4050 126° Southeast 505 581 39,000  Level FlightAware ADS-B
Thu 08:31:57 AM 36.7310 26.4850 126° Southeast 506 582 39,000  Level FlightAware ADS-B
Thu 08:32:31 AM 36.6850 26.5630 126° Southeast 506 582 39,000  Level FlightAware ADS-B
Thu 08:33:07 AM 36.6350 26.6500 126° Southeast 507 583 39,000  Level FlightAware ADS-B
Thu 08:33:43 AM 36.5840 26.7360 126° Southeast 508 585 39,000  Level FlightAware ADS-B
Thu 08:34:19 AM 36.5340 26.8210 126° Southeast 508 585 39,000  Level FlightAware ADS-B
Thu 08:34:51 AM 36.4900 26.8960 126° Southeast 508 585 39,000  Level FlightAware ADS-B
Thu 08:35:28 AM 36.4400 26.9810 126° Southeast 508 585 39,000  Level FlightAware ADS-B
Thu 08:35:57 AM 36.3990 27.0490 127° Southeast 507 583 39,000  Level FlightAware ADS-B
Thu 08:36:34 AM 36.3500 27.1320 126° Southeast 505 581 39,000  Level FlightAware ADS-B
Thu 08:37:18 AM 36.2870 27.2390 126° Southeast 503 579 39,000  Level FlightAware ADS-B
Thu 08:38:11 AM 36.2200 27.3520 126° Southeast 508 585 39,000  Level FlightAware ADS-B
Thu 08:38:53 AM 36.1660 27.4440 126° Southeast 503 579 39,000  Level FlightAware ADS-B
Thu 08:39:29 AM 36.1260 27.5160 125° Southeast 503 579 39,000  Level FlightAware ADS-B
Thu 08:40:09 AM 36.0800 27.5960 125° Southeast 503 579 39,000  Level FlightAware ADS-B
Thu 08:40:41 AM 36.0060 27.7110 128° Southeast 507 583 39,000  Level FlightAware ADS-B
Thu 08:41:15 AM 35.9540 27.7960 127° Southeast 506 582 39,000  Level FlightAware ADS-B
Thu 08:41:58 AM 35.9000 27.8860 127° Southeast 506 582 39,000  Level FlightAware ADS-B
Thu 08:42:34 AM 35.8580 27.9580 126° Southeast 506 582 39,000  Level FlightAware ADS-B
Thu 08:43:09 AM 35.7950 28.0570 128° Southeast 505 581 39,000  Level FlightAware ADS-B
Thu 08:43:47 AM 35.7420 28.1440 127° Southeast 504 580 39,000  Level FlightAware ADS-B
Thu 08:44:19 AM 35.6970 28.2200 126° Southeast 504 580 39,000  Level FlightAware ADS-B
Thu 08:44:55 AM 35.6470 28.3010 127° Southeast 504 580 39,000  Level FlightAware ADS-B
Thu 08:45:31 AM 35.5960 28.3830 127° Southeast 503 579 39,000  Level FlightAware ADS-B
Thu 08:46:03 AM 35.5520 28.4540 127° Southeast 502 578 39,000  Level FlightAware ADS-B
Thu 08:46:39 AM 35.5000 28.5380 127° Southeast 501 577 39,000  Level FlightAware ADS-B
Thu 08:47:13 AM 35.4520 28.6160 127° Southeast 501 577 39,000  Level FlightAware ADS-B
Thu 08:47:51 AM 35.3990 28.7010 127° Southeast 501 577 39,000  Level FlightAware ADS-B
Thu 08:48:25 AM 35.3510 28.7780 127° Southeast 501 577 39,000  Level FlightAware ADS-B
Thu 08:49:01 AM 35.3020 28.8570 127° Southeast 502 578 39,000  Level FlightAware ADS-B
Thu 08:49:43 AM 35.2490 28.9450 126° Southeast 502 578 39,000  Level FlightAware ADS-B
Thu 08:50:12 AM 35.2020 29.0200 127° Southeast 499 574 39,000  Level FlightAware ADS-B
Thu 08:51:07 AM 35.1300 29.1390 126° Southeast 503 579 39,000  Level FlightAware ADS-B
Thu 08:51:59 AM 35.0600 29.2530 127° Southeast 499 574 39,000  Level FlightAware ADS-B
Thu 08:52:35 AM 35.0180 29.3230 126° Southeast 499 574 39,000  Level FlightAware ADS-B
Thu 08:53:12 AM 34.9490 29.4280 129° Southeast 504 580 39,000  Level FlightAware ADS-B
Thu 08:53:43 AM 34.9070 29.4960 127° Southeast 504 580 39,000  Level FlightAware ADS-B
Thu 08:54:23 AM 34.8480 29.5890 128° Southeast 504 580 39,000  Level FlightAware ADS-B
Thu 08:54:58 AM 34.7990 29.6660 128° Southeast 504 580 39,000  Level FlightAware ADS-B
Thu 08:55:28 AM 34.7560 29.7340 128° Southeast 504 580 39,000  Level FlightAware ADS-B
Thu 08:56:04 AM 34.7060 29.8130 128° Southeast 504 580 39,000  Level FlightAware ADS-B
Thu 08:56:49 AM 34.6430 29.9120 128° Southeast 504 580 39,000  Level FlightAware ADS-B
Thu 08:57:32 AM 34.5910 29.9940 128° Southeast 504 580 39,000  Level FlightAware ADS-B
Thu 08:58:05 AM 34.5350 30.0920 125° Southeast 504 580 39,000  Level FlightAware ADS-B
Thu 08:58:46 AM 34.4930 30.1800 120° Southeast 503 579 39,000  Level FlightAware ADS-B
Thu 08:59:31 AM 34.4360 30.3000 120° Southeast 501 577 39,000  Level FlightAware ADS-B
Thu 09:00:01 AM 34.4000 30.3750 120° Southeast 500 575 39,000  Level FlightAware ADS-B
Thu 09:00:41 AM 34.3530 30.4720 120° Southeast 498 573 39,000  Level FlightAware ADS-B
Thu 09:01:17 AM 34.3110 30.5590 120° Southeast 498 573 39,000  Level FlightAware ADS-B
Thu 09:01:48 AM 34.2750 30.6330 120° Southeast 496 571 39,000  Level FlightAware ADS-B
Thu 09:02:22 AM 34.2340 30.7160 121° Southeast 495 570 39,000  Level FlightAware ADS-B
Thu 09:03:00 AM 34.1940 30.7990 120° Southeast 495 570 39,000  Level FlightAware ADS-B
Thu 09:03:33 AM 34.1520 30.8850 121° Southeast 495 570 39,000  Level FlightAware ADS-B
Thu 09:04:08 AM 34.1100 30.9710 121° Southeast 496 571 39,000  Level FlightAware ADS-B
Thu 09:04:49 AM 34.0670 31.0600 120° Southeast 497 572 39,000  Level FlightAware ADS-B
Thu 09:05:24 AM 34.0200 31.1540 121° Southeast 501 577 39,000  Level FlightAware ADS-B
Thu 09:06:04 AM 33.9740 31.2480 121° Southeast 503 579 39,000  Level FlightAware ADS-B
Thu 09:06:34 AM 33.9360 31.3240 121° Southeast 504 580 39,000  Level FlightAware ADS-B
Thu 09:07:09 AM 33.8960 31.4050 121° Southeast 505 581 39,000 -257 Level FlightAware ADS-B
Thu 09:07:44 AM 33.8550 31.4900 120° Southeast 500 575 38,700 -880 Descending FlightAware ADS-B
Thu 09:08:24 AM 33.8080 31.5840 121° Southeast 500 575 37,900 -1,286 Descending FlightAware ADS-B
Thu 09:08:54 AM 33.7710 31.6570 121° Southeast 501 577 37,200 -1,292 Descending FlightAware ADS-B
Thu 09:09:29 AM 33.7320 31.7370 120° Southeast 503 579 36,500 -1,606 Descending FlightAware ADS-B
Thu 09:10:05 AM 33.6880 31.8250 121° Southeast 503 579 35,300 -1,944 Descending FlightAware ADS-B
Thu 09:10:40 AM 33.6460 31.9080 121° Southeast 494 568 34,200 -1,950 Descending FlightAware ADS-B
Thu 09:11:25 AM 33.5930 32.0140 121° Southeast 477 549 32,700 -1,816 Descending FlightAware ADS-B
Thu 09:11:56 AM 33.5570 32.0830 122° Southeast 474 545 31,900 -1,455 Descending FlightAware ADS-B
Thu 09:12:31 AM 33.5180 32.1610 121° Southeast 464 534 31,100 -771 Descending FlightAware ADS-B
Thu 09:13:06 AM 33.4770 32.2420 121° Southeast 492 566 31,000 -87 Descending FlightAware ADS-B
Thu 09:13:40 AM 33.4470 32.3020 121° Southeast 505 581 31,000  Level FlightAware ADS-B
Thu 09:14:17 AM 33.3910 32.4110 122° Southeast 523 602 31,000  Level FlightAware ADS-B
Thu 09:14:58 AM 33.3390 32.5140 121° Southeast 525 604 31,000  Level FlightAware ADS-B
Thu 09:15:37 AM 33.2900 32.6090 122° Southeast 525 604 31,000  Level FlightAware ADS-B
Thu 09:16:12 AM 33.2440 32.6990 121° Southeast 526 605 31,000  Level FlightAware ADS-B
Thu 09:16:42 AM 33.2080 32.7700 121° Southeast 526 605 31,000  Level FlightAware ADS-B
Thu 09:17:18 AM 33.1600 32.8630 122° Southeast 527 606 31,000 -148 Level FlightAware ADS-B
Thu 09:18:03 AM 33.1050 32.9690 122° Southeast 519 597 30,800 -621 Descending FlightAware ADS-B
Thu 09:18:45 AM 33.0490 33.0780 121° Southeast 515 593 30,100 -565 Descending FlightAware ADS-B
Thu 09:19:28 AM 33.0040 33.1680 121° Southeast 515 593 30,000 -76 Descending FlightAware ADS-B
Thu 09:20:04 AM 32.9660 33.2430 121° Southeast 515 593 30,000 -1,479 Level FlightAware ADS-B
Thu 09:20:41 AM 32.9110 33.3500 121° Southeast 514 592 28,200 -2,775 Descending FlightAware ADS-B
Thu 09:21:24 AM 32.8550 33.4580 122° Southeast 491 565 26,300 -2,475 Descending FlightAware ADS-B
Thu 09:22:01 AM 32.8130 33.5410 121° Southeast 485 558 24,900 -2,583 Descending FlightAware ADS-B
Thu 09:22:36 AM 32.7700 33.6230 122° Southeast 470 541 23,200 -2,870 Descending FlightAware ADS-B
Thu 09:23:10 AM 32.7320 33.6970 121° Southeast 461 531 21,600 -2,866 Descending FlightAware ADS-B
Thu 09:23:43 AM 32.6970 33.7660 121° Southeast 451 519 20,000 -2,282 Descending FlightAware ADS-B
Thu 09:24:21 AM 32.6560 33.8440 122° Southeast 420 483 18,900 -1,457 Descending FlightAware ADS-B
Thu 09:24:53 AM 32.6250 33.9050 121° Southeast 390 449 18,300 -1,043 Descending FlightAware ADS-B
Thu 09:25:30 AM 32.5910 33.9700 122° Southeast 358 412 17,700 -930 Descending FlightAware ADS-B
Thu 09:26:04 AM 32.5640 34.0210 122° Southeast 333 383 17,200 -1,268 Descending FlightAware ADS-B
Thu 09:26:41 AM 32.5340 34.0800 121° Southeast 319 367 16,200 -1,917 Descending FlightAware ADS-B
Thu 09:27:16 AM 32.5060 34.1330 122° Southeast 314 361 14,900 -2,028 Descending FlightAware ADS-B
Thu 09:27:52 AM 32.4790 34.1840 122° Southeast 310 357 13,800 -1,818 Descending FlightAware ADS-B
Thu 09:28:22 AM 32.4520 34.2240 129° Southeast 304 350 12,900 -1,727 Descending FlightAware ADS-B
Thu 09:28:58 AM 32.4150 34.2670 136° Southeast 298 343 11,900 -1,014 Descending FlightAware ADS-B
Thu 09:29:33 AM 32.3870 34.3000 135° Southeast 296 341 11,700 -169 Descending FlightAware ADS-B
Thu 09:30:09 AM 32.3570 34.3350 135° Southeast 296 341 11,700 -2,222 Level FlightAware ADS-B
Thu 09:30:27 AM 32.3320 34.3640 136° Southeast 277 319 9,700 -2,464 Descending FlightAware ADS-B
Thu 09:31:05 AM 32.3000 34.4010 136° Southeast 275 316 9,400 -286 Descending FlightAware ADS-B
Thu 09:31:30 AM 32.2810 34.4230 136° Southeast 275 316 9,400  Level FlightAware ADS-B
Thu 09:31:42 AM 32.2720 34.4340 134° Southeast 275 316 9,400  Level FlightAware ADS-B
Thu 09:32:06 AM 32.2540 34.4560 134° Southeast 275 316 9,400  Level FlightAware ADS-B
Thu 09:32:31 AM 32.2350 34.4790 134° Southeast 275 316 9,400  Level FlightAware ADS-B
Thu 09:35:00 AM 32.0171 34.8382 125° Southeast  Level FlightAware Approximate
Thu 09:36:00 AM 32.0000 34.8667 125° Southeast  Level FlightAware Approximate
Thu 09:37:00 AM 32.0095 34.8769 125° Southeast  Level Estimated
Thu 09:38:00 AM 32.0095 34.8769 125° Southeast  Level Estimated
Thu 09:39:00 AM 32.0095 34.8769 125° Southeast  Level Estimated
Thu 09:40:00 AM 32.0095 34.8769 125° Southeast  Level Estimated
Thu 09:41:00 AM 32.0095 34.8769 125° Southeast  Level Estimated
Thu 09:42:00 AM 32.0095 34.8769 125° Southeast  Level Estimated
Thu 09:43:00 AM 32.0095 34.8769 125° Southeast  Level Estimated
Thu 09:44:00 AM 32.0095 34.8769 125° Southeast  Level Estimated

Login

Don't have an account? Register now (free) for customized features, flight alerts, and more!